<?xml version="1.0" encoding="UTF-8" standalone="no" ?>
<gpx xmlns="http://www.topografix.com/GPX/1/1" xmlns:xsi="http://www.w3.org/2001/XMLSchema-instance" xsi:schemaLocation="http://www.topografix.com/GPX/1/1 http://www.topografix.com/GPX/1/1/gpx.xsd" version="1.1" creator="VisuGPX - https://www.visugpx.com">
  <metadata>
    <name>jogging à la Grange Bedey</name>
    <desc><![CDATA[jogging printannier]]></desc>
  </metadata>
  <trk>
    <name><![CDATA[Tracé 21 avr. 2015 18:28:13]]></name>
    <trkseg>
      <trkpt lat="46.69317" lon="5.47844">
        <ele>231</ele>
        <time>2015-04-21T16:28:13Z</time>
      </trkpt>
      <trkpt lat="46.69317" lon="5.47844">
        <ele>231</ele>
        <time>2015-04-21T16:28:26Z</time>
      </trkpt>
      <trkpt lat="46.69335" lon="5.47863">
        <ele>291</ele>
        <time>2015-04-21T16:28:34Z</time>
      </trkpt>
      <trkpt lat="46.69327" lon="5.47851">
        <ele>251</ele>
        <time>2015-04-21T16:28:39Z</time>
      </trkpt>
      <trkpt lat="46.69319" lon="5.47846">
        <ele>233</ele>
        <time>2015-04-21T16:29:42Z</time>
      </trkpt>
      <trkpt lat="46.69315" lon="5.47835">
        <ele>229</ele>
        <time>2015-04-21T16:30:09Z</time>
      </trkpt>
      <trkpt lat="46.69316" lon="5.47822">
        <ele>227</ele>
        <time>2015-04-21T16:30:17Z</time>
      </trkpt>
      <trkpt lat="46.69316" lon="5.4781">
        <ele>228</ele>
        <time>2015-04-21T16:30:25Z</time>
      </trkpt>
      <trkpt lat="46.69313" lon="5.47798">
        <ele>228</ele>
        <time>2015-04-21T16:30:33Z</time>
      </trkpt>
      <trkpt lat="46.69316" lon="5.47786">
        <ele>229</ele>
        <time>2015-04-21T16:30:40Z</time>
      </trkpt>
      <trkpt lat="46.69317" lon="5.47774">
        <ele>232</ele>
        <time>2015-04-21T16:30:48Z</time>
      </trkpt>
      <trkpt lat="46.69316" lon="5.47762">
        <ele>233</ele>
        <time>2015-04-21T16:30:56Z</time>
      </trkpt>
      <trkpt lat="46.69316" lon="5.4775">
        <ele>234</ele>
        <time>2015-04-21T16:31:03Z</time>
      </trkpt>
      <trkpt lat="46.69316" lon="5.47738">
        <ele>234</ele>
        <time>2015-04-21T16:31:10Z</time>
      </trkpt>
      <trkpt lat="46.69318" lon="5.47726">
        <ele>232</ele>
        <time>2015-04-21T16:31:16Z</time>
      </trkpt>
      <trkpt lat="46.69318" lon="5.47713">
        <ele>232</ele>
        <time>2015-04-21T16:31:22Z</time>
      </trkpt>
      <trkpt lat="46.69318" lon="5.47701">
        <ele>233</ele>
        <time>2015-04-21T16:31:28Z</time>
      </trkpt>
      <trkpt lat="46.69318" lon="5.47689">
        <ele>232</ele>
        <time>2015-04-21T16:31:34Z</time>
      </trkpt>
      <trkpt lat="46.69317" lon="5.47677">
        <ele>234</ele>
        <time>2015-04-21T16:31:40Z</time>
      </trkpt>
      <trkpt lat="46.69317" lon="5.47665">
        <ele>232</ele>
        <time>2015-04-21T16:31:46Z</time>
      </trkpt>
      <trkpt lat="46.69319" lon="5.47653">
        <ele>230</ele>
        <time>2015-04-21T16:31:52Z</time>
      </trkpt>
      <trkpt lat="46.69319" lon="5.47641">
        <ele>230</ele>
        <time>2015-04-21T16:31:58Z</time>
      </trkpt>
      <trkpt lat="46.69317" lon="5.47629">
        <ele>230</ele>
        <time>2015-04-21T16:32:05Z</time>
      </trkpt>
      <trkpt lat="46.69316" lon="5.47616">
        <ele>232</ele>
        <time>2015-04-21T16:32:22Z</time>
      </trkpt>
      <trkpt lat="46.69316" lon="5.47604">
        <ele>232</ele>
        <time>2015-04-21T16:32:41Z</time>
      </trkpt>
      <trkpt lat="46.69317" lon="5.47592">
        <ele>233</ele>
        <time>2015-04-21T16:32:47Z</time>
      </trkpt>
      <trkpt lat="46.6932" lon="5.47578">
        <ele>234</ele>
        <time>2015-04-21T16:32:52Z</time>
      </trkpt>
      <trkpt lat="46.69321" lon="5.47566">
        <ele>235</ele>
        <time>2015-04-21T16:32:56Z</time>
      </trkpt>
      <trkpt lat="46.69319" lon="5.47548">
        <ele>232</ele>
        <time>2015-04-21T16:33:01Z</time>
      </trkpt>
      <trkpt lat="46.69317" lon="5.47528">
        <ele>231</ele>
        <time>2015-04-21T16:33:06Z</time>
      </trkpt>
      <trkpt lat="46.69317" lon="5.47512">
        <ele>231</ele>
        <time>2015-04-21T16:33:10Z</time>
      </trkpt>
      <trkpt lat="46.69314" lon="5.47498">
        <ele>232</ele>
        <time>2015-04-21T16:33:14Z</time>
      </trkpt>
      <trkpt lat="46.69312" lon="5.47484">
        <ele>232</ele>
        <time>2015-04-21T16:33:18Z</time>
      </trkpt>
      <trkpt lat="46.69312" lon="5.47466">
        <ele>231</ele>
        <time>2015-04-21T16:33:23Z</time>
      </trkpt>
      <trkpt lat="46.69311" lon="5.47449">
        <ele>234</ele>
        <time>2015-04-21T16:33:28Z</time>
      </trkpt>
      <trkpt lat="46.6931" lon="5.47433">
        <ele>232</ele>
        <time>2015-04-21T16:33:33Z</time>
      </trkpt>
      <trkpt lat="46.6931" lon="5.47419">
        <ele>238</ele>
        <time>2015-04-21T16:33:37Z</time>
      </trkpt>
      <trkpt lat="46.69311" lon="5.474">
        <ele>235</ele>
        <time>2015-04-21T16:33:42Z</time>
      </trkpt>
      <trkpt lat="46.69312" lon="5.47383">
        <ele>239</ele>
        <time>2015-04-21T16:33:47Z</time>
      </trkpt>
      <trkpt lat="46.69311" lon="5.47369">
        <ele>238</ele>
        <time>2015-04-21T16:33:51Z</time>
      </trkpt>
      <trkpt lat="46.69311" lon="5.47349">
        <ele>234</ele>
        <time>2015-04-21T16:33:56Z</time>
      </trkpt>
      <trkpt lat="46.6931" lon="5.47333">
        <ele>232</ele>
        <time>2015-04-21T16:34:00Z</time>
      </trkpt>
      <trkpt lat="46.69308" lon="5.47315">
        <ele>230</ele>
        <time>2015-04-21T16:34:05Z</time>
      </trkpt>
      <trkpt lat="46.69305" lon="5.47301">
        <ele>228</ele>
        <time>2015-04-21T16:34:09Z</time>
      </trkpt>
      <trkpt lat="46.693" lon="5.47289">
        <ele>229</ele>
        <time>2015-04-21T16:34:13Z</time>
      </trkpt>
      <trkpt lat="46.69297" lon="5.47277">
        <ele>230</ele>
        <time>2015-04-21T16:34:18Z</time>
      </trkpt>
      <trkpt lat="46.69292" lon="5.47263">
        <ele>230</ele>
        <time>2015-04-21T16:34:23Z</time>
      </trkpt>
      <trkpt lat="46.69284" lon="5.47247">
        <ele>228</ele>
        <time>2015-04-21T16:34:27Z</time>
      </trkpt>
      <trkpt lat="46.69277" lon="5.47232">
        <ele>228</ele>
        <time>2015-04-21T16:34:32Z</time>
      </trkpt>
      <trkpt lat="46.69273" lon="5.4722">
        <ele>228</ele>
        <time>2015-04-21T16:34:36Z</time>
      </trkpt>
      <trkpt lat="46.69266" lon="5.47207">
        <ele>229</ele>
        <time>2015-04-21T16:34:41Z</time>
      </trkpt>
      <trkpt lat="46.69261" lon="5.47196">
        <ele>229</ele>
        <time>2015-04-21T16:34:45Z</time>
      </trkpt>
      <trkpt lat="46.69253" lon="5.47182">
        <ele>227</ele>
        <time>2015-04-21T16:34:50Z</time>
      </trkpt>
      <trkpt lat="46.69247" lon="5.4717">
        <ele>228</ele>
        <time>2015-04-21T16:34:55Z</time>
      </trkpt>
      <trkpt lat="46.69239" lon="5.47155">
        <ele>228</ele>
        <time>2015-04-21T16:34:59Z</time>
      </trkpt>
      <trkpt lat="46.69233" lon="5.47139">
        <ele>229</ele>
        <time>2015-04-21T16:35:04Z</time>
      </trkpt>
      <trkpt lat="46.69227" lon="5.47124">
        <ele>229</ele>
        <time>2015-04-21T16:35:09Z</time>
      </trkpt>
      <trkpt lat="46.6922" lon="5.47112">
        <ele>230</ele>
        <time>2015-04-21T16:35:13Z</time>
      </trkpt>
      <trkpt lat="46.69215" lon="5.471">
        <ele>229</ele>
        <time>2015-04-21T16:35:17Z</time>
      </trkpt>
      <trkpt lat="46.69208" lon="5.47088">
        <ele>228</ele>
        <time>2015-04-21T16:35:21Z</time>
      </trkpt>
      <trkpt lat="46.69203" lon="5.47074">
        <ele>228</ele>
        <time>2015-04-21T16:35:25Z</time>
      </trkpt>
      <trkpt lat="46.69196" lon="5.47058">
        <ele>228</ele>
        <time>2015-04-21T16:35:30Z</time>
      </trkpt>
      <trkpt lat="46.69193" lon="5.47045">
        <ele>229</ele>
        <time>2015-04-21T16:35:34Z</time>
      </trkpt>
      <trkpt lat="46.69188" lon="5.47033">
        <ele>229</ele>
        <time>2015-04-21T16:35:38Z</time>
      </trkpt>
      <trkpt lat="46.69181" lon="5.47018">
        <ele>225</ele>
        <time>2015-04-21T16:35:43Z</time>
      </trkpt>
      <trkpt lat="46.69174" lon="5.47007">
        <ele>228</ele>
        <time>2015-04-21T16:35:47Z</time>
      </trkpt>
      <trkpt lat="46.69166" lon="5.46992">
        <ele>228</ele>
        <time>2015-04-21T16:35:52Z</time>
      </trkpt>
      <trkpt lat="46.6916" lon="5.46979">
        <ele>228</ele>
        <time>2015-04-21T16:35:56Z</time>
      </trkpt>
      <trkpt lat="46.69153" lon="5.46965">
        <ele>230</ele>
        <time>2015-04-21T16:36:01Z</time>
      </trkpt>
      <trkpt lat="46.69146" lon="5.4695">
        <ele>228</ele>
        <time>2015-04-21T16:36:06Z</time>
      </trkpt>
      <trkpt lat="46.6914" lon="5.46937">
        <ele>227</ele>
        <time>2015-04-21T16:36:11Z</time>
      </trkpt>
      <trkpt lat="46.69135" lon="5.46927">
        <ele>229</ele>
        <time>2015-04-21T16:36:20Z</time>
      </trkpt>
      <trkpt lat="46.69131" lon="5.46915">
        <ele>229</ele>
        <time>2015-04-21T16:36:27Z</time>
      </trkpt>
      <trkpt lat="46.69127" lon="5.46905">
        <ele>229</ele>
        <time>2015-04-21T16:36:34Z</time>
      </trkpt>
      <trkpt lat="46.69121" lon="5.46896">
        <ele>230</ele>
        <time>2015-04-21T16:36:39Z</time>
      </trkpt>
      <trkpt lat="46.69117" lon="5.46888">
        <ele>229</ele>
        <time>2015-04-21T16:36:44Z</time>
      </trkpt>
      <trkpt lat="46.69114" lon="5.46871">
        <ele>229</ele>
        <time>2015-04-21T16:36:49Z</time>
      </trkpt>
      <trkpt lat="46.69123" lon="5.4686">
        <ele>227</ele>
        <time>2015-04-21T16:36:53Z</time>
      </trkpt>
      <trkpt lat="46.69132" lon="5.46856">
        <ele>226</ele>
        <time>2015-04-21T16:36:57Z</time>
      </trkpt>
      <trkpt lat="46.69143" lon="5.46844">
        <ele>226</ele>
        <time>2015-04-21T16:37:02Z</time>
      </trkpt>
      <trkpt lat="46.69152" lon="5.46833">
        <ele>229</ele>
        <time>2015-04-21T16:37:07Z</time>
      </trkpt>
      <trkpt lat="46.6916" lon="5.46825">
        <ele>231</ele>
        <time>2015-04-21T16:37:11Z</time>
      </trkpt>
      <trkpt lat="46.69172" lon="5.46816">
        <ele>230</ele>
        <time>2015-04-21T16:37:16Z</time>
      </trkpt>
      <trkpt lat="46.6918" lon="5.46808">
        <ele>229</ele>
        <time>2015-04-21T16:37:20Z</time>
      </trkpt>
      <trkpt lat="46.69189" lon="5.468">
        <ele>229</ele>
        <time>2015-04-21T16:37:25Z</time>
      </trkpt>
      <trkpt lat="46.69201" lon="5.46789">
        <ele>228</ele>
        <time>2015-04-21T16:37:29Z</time>
      </trkpt>
      <trkpt lat="46.69212" lon="5.4678">
        <ele>227</ele>
        <time>2015-04-21T16:37:34Z</time>
      </trkpt>
      <trkpt lat="46.69221" lon="5.46771">
        <ele>228</ele>
        <time>2015-04-21T16:37:38Z</time>
      </trkpt>
      <trkpt lat="46.6923" lon="5.46763">
        <ele>228</ele>
        <time>2015-04-21T16:37:42Z</time>
      </trkpt>
      <trkpt lat="46.69238" lon="5.46755">
        <ele>230</ele>
        <time>2015-04-21T16:37:46Z</time>
      </trkpt>
      <trkpt lat="46.69248" lon="5.46747">
        <ele>230</ele>
        <time>2015-04-21T16:37:50Z</time>
      </trkpt>
      <trkpt lat="46.69258" lon="5.46739">
        <ele>225</ele>
        <time>2015-04-21T16:37:54Z</time>
      </trkpt>
      <trkpt lat="46.69269" lon="5.46727">
        <ele>225</ele>
        <time>2015-04-21T16:37:59Z</time>
      </trkpt>
      <trkpt lat="46.69277" lon="5.46719">
        <ele>226</ele>
        <time>2015-04-21T16:38:03Z</time>
      </trkpt>
      <trkpt lat="46.69285" lon="5.46712">
        <ele>230</ele>
        <time>2015-04-21T16:38:07Z</time>
      </trkpt>
      <trkpt lat="46.69292" lon="5.46704">
        <ele>229</ele>
        <time>2015-04-21T16:38:11Z</time>
      </trkpt>
      <trkpt lat="46.69303" lon="5.46694">
        <ele>229</ele>
        <time>2015-04-21T16:38:16Z</time>
      </trkpt>
      <trkpt lat="46.69313" lon="5.46684">
        <ele>228</ele>
        <time>2015-04-21T16:38:20Z</time>
      </trkpt>
      <trkpt lat="46.6932" lon="5.46677">
        <ele>233</ele>
        <time>2015-04-21T16:38:25Z</time>
      </trkpt>
      <trkpt lat="46.6933" lon="5.46666">
        <ele>231</ele>
        <time>2015-04-21T16:38:29Z</time>
      </trkpt>
      <trkpt lat="46.69339" lon="5.46658">
        <ele>230</ele>
        <time>2015-04-21T16:38:33Z</time>
      </trkpt>
      <trkpt lat="46.69351" lon="5.46651">
        <ele>228</ele>
        <time>2015-04-21T16:38:38Z</time>
      </trkpt>
      <trkpt lat="46.6936" lon="5.46643">
        <ele>227</ele>
        <time>2015-04-21T16:38:42Z</time>
      </trkpt>
      <trkpt lat="46.69368" lon="5.46634">
        <ele>228</ele>
        <time>2015-04-21T16:38:46Z</time>
      </trkpt>
      <trkpt lat="46.69374" lon="5.46628">
        <ele>233</ele>
        <time>2015-04-21T16:38:50Z</time>
      </trkpt>
      <trkpt lat="46.69383" lon="5.46623">
        <ele>234</ele>
        <time>2015-04-21T16:38:55Z</time>
      </trkpt>
      <trkpt lat="46.69393" lon="5.46617">
        <ele>232</ele>
        <time>2015-04-21T16:39:00Z</time>
      </trkpt>
      <trkpt lat="46.69402" lon="5.4661">
        <ele>236</ele>
        <time>2015-04-21T16:39:04Z</time>
      </trkpt>
      <trkpt lat="46.69415" lon="5.46604">
        <ele>233</ele>
        <time>2015-04-21T16:39:09Z</time>
      </trkpt>
      <trkpt lat="46.69424" lon="5.46597">
        <ele>232</ele>
        <time>2015-04-21T16:39:13Z</time>
      </trkpt>
      <trkpt lat="46.69434" lon="5.46589">
        <ele>231</ele>
        <time>2015-04-21T16:39:17Z</time>
      </trkpt>
      <trkpt lat="46.69443" lon="5.46582">
        <ele>231</ele>
        <time>2015-04-21T16:39:21Z</time>
      </trkpt>
      <trkpt lat="46.69455" lon="5.46572">
        <ele>231</ele>
        <time>2015-04-21T16:39:26Z</time>
      </trkpt>
      <trkpt lat="46.69465" lon="5.46564">
        <ele>231</ele>
        <time>2015-04-21T16:39:30Z</time>
      </trkpt>
      <trkpt lat="46.69473" lon="5.46556">
        <ele>232</ele>
        <time>2015-04-21T16:39:34Z</time>
      </trkpt>
      <trkpt lat="46.69481" lon="5.46548">
        <ele>230</ele>
        <time>2015-04-21T16:39:38Z</time>
      </trkpt>
      <trkpt lat="46.69491" lon="5.46537">
        <ele>231</ele>
        <time>2015-04-21T16:39:43Z</time>
      </trkpt>
      <trkpt lat="46.69498" lon="5.46528">
        <ele>229</ele>
        <time>2015-04-21T16:39:47Z</time>
      </trkpt>
      <trkpt lat="46.69508" lon="5.46516">
        <ele>231</ele>
        <time>2015-04-21T16:39:52Z</time>
      </trkpt>
      <trkpt lat="46.69517" lon="5.46504">
        <ele>230</ele>
        <time>2015-04-21T16:39:57Z</time>
      </trkpt>
      <trkpt lat="46.69524" lon="5.46494">
        <ele>229</ele>
        <time>2015-04-21T16:40:01Z</time>
      </trkpt>
      <trkpt lat="46.69534" lon="5.46481">
        <ele>228</ele>
        <time>2015-04-21T16:40:06Z</time>
      </trkpt>
      <trkpt lat="46.69542" lon="5.46471">
        <ele>227</ele>
        <time>2015-04-21T16:40:10Z</time>
      </trkpt>
      <trkpt lat="46.6955" lon="5.46461">
        <ele>227</ele>
        <time>2015-04-21T16:40:14Z</time>
      </trkpt>
      <trkpt lat="46.69559" lon="5.46452">
        <ele>228</ele>
        <time>2015-04-21T16:40:18Z</time>
      </trkpt>
      <trkpt lat="46.69568" lon="5.46441">
        <ele>228</ele>
        <time>2015-04-21T16:40:23Z</time>
      </trkpt>
      <trkpt lat="46.69576" lon="5.46433">
        <ele>229</ele>
        <time>2015-04-21T16:40:27Z</time>
      </trkpt>
      <trkpt lat="46.6958" lon="5.46421">
        <ele>228</ele>
        <time>2015-04-21T16:40:31Z</time>
      </trkpt>
      <trkpt lat="46.69584" lon="5.46408">
        <ele>228</ele>
        <time>2015-04-21T16:40:35Z</time>
      </trkpt>
      <trkpt lat="46.6959" lon="5.4639">
        <ele>226</ele>
        <time>2015-04-21T16:40:40Z</time>
      </trkpt>
      <trkpt lat="46.69596" lon="5.46375">
        <ele>227</ele>
        <time>2015-04-21T16:40:45Z</time>
      </trkpt>
      <trkpt lat="46.696" lon="5.46357">
        <ele>227</ele>
        <time>2015-04-21T16:40:50Z</time>
      </trkpt>
      <trkpt lat="46.69605" lon="5.46344">
        <ele>228</ele>
        <time>2015-04-21T16:40:54Z</time>
      </trkpt>
      <trkpt lat="46.69611" lon="5.46327">
        <ele>224</ele>
        <time>2015-04-21T16:40:59Z</time>
      </trkpt>
      <trkpt lat="46.69619" lon="5.46311">
        <ele>224</ele>
        <time>2015-04-21T16:41:04Z</time>
      </trkpt>
      <trkpt lat="46.69628" lon="5.46295">
        <ele>229</ele>
        <time>2015-04-21T16:41:09Z</time>
      </trkpt>
      <trkpt lat="46.69633" lon="5.4628">
        <ele>225</ele>
        <time>2015-04-21T16:41:13Z</time>
      </trkpt>
      <trkpt lat="46.69637" lon="5.46258">
        <ele>222</ele>
        <time>2015-04-21T16:41:18Z</time>
      </trkpt>
      <trkpt lat="46.69644" lon="5.4624">
        <ele>223</ele>
        <time>2015-04-21T16:41:23Z</time>
      </trkpt>
      <trkpt lat="46.69646" lon="5.46225">
        <ele>222</ele>
        <time>2015-04-21T16:41:27Z</time>
      </trkpt>
      <trkpt lat="46.69651" lon="5.46212">
        <ele>223</ele>
        <time>2015-04-21T16:41:31Z</time>
      </trkpt>
      <trkpt lat="46.69657" lon="5.46195">
        <ele>224</ele>
        <time>2015-04-21T16:41:36Z</time>
      </trkpt>
      <trkpt lat="46.6966" lon="5.46181">
        <ele>223</ele>
        <time>2015-04-21T16:41:40Z</time>
      </trkpt>
      <trkpt lat="46.69663" lon="5.46167">
        <ele>223</ele>
        <time>2015-04-21T16:41:44Z</time>
      </trkpt>
      <trkpt lat="46.69668" lon="5.46151">
        <ele>223</ele>
        <time>2015-04-21T16:41:49Z</time>
      </trkpt>
      <trkpt lat="46.6967" lon="5.46135">
        <ele>226</ele>
        <time>2015-04-21T16:41:54Z</time>
      </trkpt>
      <trkpt lat="46.69674" lon="5.46122">
        <ele>224</ele>
        <time>2015-04-21T16:41:58Z</time>
      </trkpt>
      <trkpt lat="46.69679" lon="5.46109">
        <ele>221</ele>
        <time>2015-04-21T16:42:02Z</time>
      </trkpt>
      <trkpt lat="46.69682" lon="5.46095">
        <ele>222</ele>
        <time>2015-04-21T16:42:06Z</time>
      </trkpt>
      <trkpt lat="46.69685" lon="5.46081">
        <ele>224</ele>
        <time>2015-04-21T16:42:10Z</time>
      </trkpt>
      <trkpt lat="46.69689" lon="5.46068">
        <ele>228</ele>
        <time>2015-04-21T16:42:14Z</time>
      </trkpt>
      <trkpt lat="46.69695" lon="5.46057">
        <ele>228</ele>
        <time>2015-04-21T16:42:18Z</time>
      </trkpt>
      <trkpt lat="46.697" lon="5.46044">
        <ele>222</ele>
        <time>2015-04-21T16:42:22Z</time>
      </trkpt>
      <trkpt lat="46.69706" lon="5.4603">
        <ele>221</ele>
        <time>2015-04-21T16:42:26Z</time>
      </trkpt>
      <trkpt lat="46.69712" lon="5.46014">
        <ele>220</ele>
        <time>2015-04-21T16:42:30Z</time>
      </trkpt>
      <trkpt lat="46.69717" lon="5.46001">
        <ele>219</ele>
        <time>2015-04-21T16:42:34Z</time>
      </trkpt>
      <trkpt lat="46.69725" lon="5.45986">
        <ele>217</ele>
        <time>2015-04-21T16:42:39Z</time>
      </trkpt>
      <trkpt lat="46.69727" lon="5.45971">
        <ele>217</ele>
        <time>2015-04-21T16:42:43Z</time>
      </trkpt>
      <trkpt lat="46.69731" lon="5.45958">
        <ele>219</ele>
        <time>2015-04-21T16:42:47Z</time>
      </trkpt>
      <trkpt lat="46.69735" lon="5.45945">
        <ele>220</ele>
        <time>2015-04-21T16:42:51Z</time>
      </trkpt>
      <trkpt lat="46.69741" lon="5.4593">
        <ele>223</ele>
        <time>2015-04-21T16:42:56Z</time>
      </trkpt>
      <trkpt lat="46.69743" lon="5.45917">
        <ele>222</ele>
        <time>2015-04-21T16:43:00Z</time>
      </trkpt>
      <trkpt lat="46.69746" lon="5.45904">
        <ele>224</ele>
        <time>2015-04-21T16:43:04Z</time>
      </trkpt>
      <trkpt lat="46.69752" lon="5.45888">
        <ele>222</ele>
        <time>2015-04-21T16:43:09Z</time>
      </trkpt>
      <trkpt lat="46.69757" lon="5.45875">
        <ele>222</ele>
        <time>2015-04-21T16:43:13Z</time>
      </trkpt>
      <trkpt lat="46.69761" lon="5.45857">
        <ele>224</ele>
        <time>2015-04-21T16:43:18Z</time>
      </trkpt>
      <trkpt lat="46.69766" lon="5.45841">
        <ele>225</ele>
        <time>2015-04-21T16:43:23Z</time>
      </trkpt>
      <trkpt lat="46.6977" lon="5.45828">
        <ele>222</ele>
        <time>2015-04-21T16:43:27Z</time>
      </trkpt>
      <trkpt lat="46.69777" lon="5.45814">
        <ele>227</ele>
        <time>2015-04-21T16:43:32Z</time>
      </trkpt>
      <trkpt lat="46.6978" lon="5.45801">
        <ele>228</ele>
        <time>2015-04-21T16:43:37Z</time>
      </trkpt>
      <trkpt lat="46.69783" lon="5.4579">
        <ele>228</ele>
        <time>2015-04-21T16:43:41Z</time>
      </trkpt>
      <trkpt lat="46.69787" lon="5.45777">
        <ele>228</ele>
        <time>2015-04-21T16:43:45Z</time>
      </trkpt>
      <trkpt lat="46.6979" lon="5.45765">
        <ele>227</ele>
        <time>2015-04-21T16:43:49Z</time>
      </trkpt>
      <trkpt lat="46.69794" lon="5.45753">
        <ele>231</ele>
        <time>2015-04-21T16:43:54Z</time>
      </trkpt>
      <trkpt lat="46.69798" lon="5.45738">
        <ele>232</ele>
        <time>2015-04-21T16:43:58Z</time>
      </trkpt>
      <trkpt lat="46.69804" lon="5.45725">
        <ele>233</ele>
        <time>2015-04-21T16:44:02Z</time>
      </trkpt>
      <trkpt lat="46.69808" lon="5.45711">
        <ele>232</ele>
        <time>2015-04-21T16:44:06Z</time>
      </trkpt>
      <trkpt lat="46.69811" lon="5.45698">
        <ele>234</ele>
        <time>2015-04-21T16:44:10Z</time>
      </trkpt>
      <trkpt lat="46.69814" lon="5.45684">
        <ele>233</ele>
        <time>2015-04-21T16:44:14Z</time>
      </trkpt>
      <trkpt lat="46.6982" lon="5.45669">
        <ele>231</ele>
        <time>2015-04-21T16:44:18Z</time>
      </trkpt>
      <trkpt lat="46.69825" lon="5.4565">
        <ele>227</ele>
        <time>2015-04-21T16:44:23Z</time>
      </trkpt>
      <trkpt lat="46.69832" lon="5.45633">
        <ele>226</ele>
        <time>2015-04-21T16:44:28Z</time>
      </trkpt>
      <trkpt lat="46.69837" lon="5.45619">
        <ele>228</ele>
        <time>2015-04-21T16:44:32Z</time>
      </trkpt>
      <trkpt lat="46.69842" lon="5.45601">
        <ele>231</ele>
        <time>2015-04-21T16:44:37Z</time>
      </trkpt>
      <trkpt lat="46.69846" lon="5.45585">
        <ele>227</ele>
        <time>2015-04-21T16:44:41Z</time>
      </trkpt>
      <trkpt lat="46.6985" lon="5.45569">
        <ele>224</ele>
        <time>2015-04-21T16:44:45Z</time>
      </trkpt>
      <trkpt lat="46.69858" lon="5.45555">
        <ele>220</ele>
        <time>2015-04-21T16:44:49Z</time>
      </trkpt>
      <trkpt lat="46.69871" lon="5.45544">
        <ele>221</ele>
        <time>2015-04-21T16:44:54Z</time>
      </trkpt>
      <trkpt lat="46.6988" lon="5.45538">
        <ele>224</ele>
        <time>2015-04-21T16:44:58Z</time>
      </trkpt>
      <trkpt lat="46.69887" lon="5.45533">
        <ele>223</ele>
        <time>2015-04-21T16:45:04Z</time>
      </trkpt>
      <trkpt lat="46.69894" lon="5.45527">
        <ele>221</ele>
        <time>2015-04-21T16:45:11Z</time>
      </trkpt>
      <trkpt lat="46.69902" lon="5.45521">
        <ele>220</ele>
        <time>2015-04-21T16:45:18Z</time>
      </trkpt>
      <trkpt lat="46.69909" lon="5.45514">
        <ele>220</ele>
        <time>2015-04-21T16:45:27Z</time>
      </trkpt>
      <trkpt lat="46.69917" lon="5.45511">
        <ele>218</ele>
        <time>2015-04-21T16:45:39Z</time>
      </trkpt>
      <trkpt lat="46.69925" lon="5.4551">
        <ele>218</ele>
        <time>2015-04-21T16:45:45Z</time>
      </trkpt>
      <trkpt lat="46.69933" lon="5.45506">
        <ele>216</ele>
        <time>2015-04-21T16:45:54Z</time>
      </trkpt>
      <trkpt lat="46.6994" lon="5.45497">
        <ele>214</ele>
        <time>2015-04-21T16:46:10Z</time>
      </trkpt>
      <trkpt lat="46.69948" lon="5.45493">
        <ele>215</ele>
        <time>2015-04-21T16:46:20Z</time>
      </trkpt>
      <trkpt lat="46.69956" lon="5.45489">
        <ele>215</ele>
        <time>2015-04-21T16:46:29Z</time>
      </trkpt>
      <trkpt lat="46.69964" lon="5.45484">
        <ele>216</ele>
        <time>2015-04-21T16:46:39Z</time>
      </trkpt>
      <trkpt lat="46.69973" lon="5.45482">
        <ele>217</ele>
        <time>2015-04-21T16:46:49Z</time>
      </trkpt>
      <trkpt lat="46.69981" lon="5.45477">
        <ele>217</ele>
        <time>2015-04-21T16:46:57Z</time>
      </trkpt>
      <trkpt lat="46.69989" lon="5.45476">
        <ele>220</ele>
        <time>2015-04-21T16:47:07Z</time>
      </trkpt>
      <trkpt lat="46.69997" lon="5.45473">
        <ele>219</ele>
        <time>2015-04-21T16:47:15Z</time>
      </trkpt>
      <trkpt lat="46.70005" lon="5.4547">
        <ele>223</ele>
        <time>2015-04-21T16:47:24Z</time>
      </trkpt>
      <trkpt lat="46.70014" lon="5.45472">
        <ele>224</ele>
        <time>2015-04-21T16:47:36Z</time>
      </trkpt>
      <trkpt lat="46.70008" lon="5.45463">
        <ele>218</ele>
        <time>2015-04-21T16:48:00Z</time>
      </trkpt>
      <trkpt lat="46.69999" lon="5.45456">
        <ele>216</ele>
        <time>2015-04-21T16:48:05Z</time>
      </trkpt>
      <trkpt lat="46.69991" lon="5.45448">
        <ele>217</ele>
        <time>2015-04-21T16:48:10Z</time>
      </trkpt>
      <trkpt lat="46.69984" lon="5.45439">
        <ele>217</ele>
        <time>2015-04-21T16:48:14Z</time>
      </trkpt>
      <trkpt lat="46.69986" lon="5.45426">
        <ele>218</ele>
        <time>2015-04-21T16:48:19Z</time>
      </trkpt>
      <trkpt lat="46.69993" lon="5.45418">
        <ele>220</ele>
        <time>2015-04-21T16:48:23Z</time>
      </trkpt>
      <trkpt lat="46.7" lon="5.45414">
        <ele>221</ele>
        <time>2015-04-21T16:48:27Z</time>
      </trkpt>
      <trkpt lat="46.70006" lon="5.45405">
        <ele>218</ele>
        <time>2015-04-21T16:48:32Z</time>
      </trkpt>
      <trkpt lat="46.7001" lon="5.45396">
        <ele>219</ele>
        <time>2015-04-21T16:48:36Z</time>
      </trkpt>
      <trkpt lat="46.70019" lon="5.45389">
        <ele>221</ele>
        <time>2015-04-21T16:48:41Z</time>
      </trkpt>
      <trkpt lat="46.70027" lon="5.45377">
        <ele>220</ele>
        <time>2015-04-21T16:48:46Z</time>
      </trkpt>
      <trkpt lat="46.70034" lon="5.45361">
        <ele>222</ele>
        <time>2015-04-21T16:48:51Z</time>
      </trkpt>
      <trkpt lat="46.70038" lon="5.45348">
        <ele>221</ele>
        <time>2015-04-21T16:48:55Z</time>
      </trkpt>
      <trkpt lat="46.70041" lon="5.45336">
        <ele>221</ele>
        <time>2015-04-21T16:48:59Z</time>
      </trkpt>
      <trkpt lat="46.70046" lon="5.45323">
        <ele>222</ele>
        <time>2015-04-21T16:49:04Z</time>
      </trkpt>
      <trkpt lat="46.70047" lon="5.45311">
        <ele>221</ele>
        <time>2015-04-21T16:49:09Z</time>
      </trkpt>
      <trkpt lat="46.70047" lon="5.45298">
        <ele>223</ele>
        <time>2015-04-21T16:49:19Z</time>
      </trkpt>
      <trkpt lat="46.70049" lon="5.45286">
        <ele>221</ele>
        <time>2015-04-21T16:49:56Z</time>
      </trkpt>
      <trkpt lat="46.70056" lon="5.45278">
        <ele>221</ele>
        <time>2015-04-21T16:50:02Z</time>
      </trkpt>
      <trkpt lat="46.70061" lon="5.45269">
        <ele>224</ele>
        <time>2015-04-21T16:50:06Z</time>
      </trkpt>
      <trkpt lat="46.70066" lon="5.45259">
        <ele>225</ele>
        <time>2015-04-21T16:50:11Z</time>
      </trkpt>
      <trkpt lat="46.70069" lon="5.45251">
        <ele>223</ele>
        <time>2015-04-21T16:50:16Z</time>
      </trkpt>
      <trkpt lat="46.70076" lon="5.45243">
        <ele>229</ele>
        <time>2015-04-21T16:50:21Z</time>
      </trkpt>
      <trkpt lat="46.70083" lon="5.45235">
        <ele>230</ele>
        <time>2015-04-21T16:50:25Z</time>
      </trkpt>
      <trkpt lat="46.70088" lon="5.45226">
        <ele>228</ele>
        <time>2015-04-21T16:50:29Z</time>
      </trkpt>
      <trkpt lat="46.70094" lon="5.45213">
        <ele>232</ele>
        <time>2015-04-21T16:50:34Z</time>
      </trkpt>
      <trkpt lat="46.70099" lon="5.45204">
        <ele>232</ele>
        <time>2015-04-21T16:50:39Z</time>
      </trkpt>
      <trkpt lat="46.70104" lon="5.45193">
        <ele>229</ele>
        <time>2015-04-21T16:50:44Z</time>
      </trkpt>
      <trkpt lat="46.70112" lon="5.45181">
        <ele>229</ele>
        <time>2015-04-21T16:50:49Z</time>
      </trkpt>
      <trkpt lat="46.70118" lon="5.45172">
        <ele>228</ele>
        <time>2015-04-21T16:50:55Z</time>
      </trkpt>
      <trkpt lat="46.70125" lon="5.45164">
        <ele>227</ele>
        <time>2015-04-21T16:50:59Z</time>
      </trkpt>
      <trkpt lat="46.70134" lon="5.45149">
        <ele>228</ele>
        <time>2015-04-21T16:51:04Z</time>
      </trkpt>
      <trkpt lat="46.7014" lon="5.45136">
        <ele>228</ele>
        <time>2015-04-21T16:51:08Z</time>
      </trkpt>
      <trkpt lat="46.70138" lon="5.45119">
        <ele>229</ele>
        <time>2015-04-21T16:51:13Z</time>
      </trkpt>
      <trkpt lat="46.70131" lon="5.45107">
        <ele>230</ele>
        <time>2015-04-21T16:51:18Z</time>
      </trkpt>
      <trkpt lat="46.70129" lon="5.45099">
        <ele>234</ele>
        <time>2015-04-21T16:51:32Z</time>
      </trkpt>
      <trkpt lat="46.70121" lon="5.45087">
        <ele>232</ele>
        <time>2015-04-21T16:51:36Z</time>
      </trkpt>
      <trkpt lat="46.70112" lon="5.45073">
        <ele>234</ele>
        <time>2015-04-21T16:51:41Z</time>
      </trkpt>
      <trkpt lat="46.70104" lon="5.45064">
        <ele>232</ele>
        <time>2015-04-21T16:51:45Z</time>
      </trkpt>
      <trkpt lat="46.70097" lon="5.45055">
        <ele>232</ele>
        <time>2015-04-21T16:51:50Z</time>
      </trkpt>
      <trkpt lat="46.7009" lon="5.45043">
        <ele>230</ele>
        <time>2015-04-21T16:51:54Z</time>
      </trkpt>
      <trkpt lat="46.70082" lon="5.45031">
        <ele>233</ele>
        <time>2015-04-21T16:51:59Z</time>
      </trkpt>
      <trkpt lat="46.70077" lon="5.45021">
        <ele>231</ele>
        <time>2015-04-21T16:52:03Z</time>
      </trkpt>
      <trkpt lat="46.70069" lon="5.4501">
        <ele>232</ele>
        <time>2015-04-21T16:52:08Z</time>
      </trkpt>
      <trkpt lat="46.70063" lon="5.44999">
        <ele>233</ele>
        <time>2015-04-21T16:52:12Z</time>
      </trkpt>
      <trkpt lat="46.70057" lon="5.4499">
        <ele>234</ele>
        <time>2015-04-21T16:52:16Z</time>
      </trkpt>
      <trkpt lat="46.70049" lon="5.44979">
        <ele>234</ele>
        <time>2015-04-21T16:52:21Z</time>
      </trkpt>
      <trkpt lat="46.70039" lon="5.44967">
        <ele>233</ele>
        <time>2015-04-21T16:52:26Z</time>
      </trkpt>
      <trkpt lat="46.70032" lon="5.44958">
        <ele>233</ele>
        <time>2015-04-21T16:52:30Z</time>
      </trkpt>
      <trkpt lat="46.70024" lon="5.44949">
        <ele>234</ele>
        <time>2015-04-21T16:52:34Z</time>
      </trkpt>
      <trkpt lat="46.70017" lon="5.44941">
        <ele>233</ele>
        <time>2015-04-21T16:52:38Z</time>
      </trkpt>
      <trkpt lat="46.70009" lon="5.44933">
        <ele>232</ele>
        <time>2015-04-21T16:52:42Z</time>
      </trkpt>
      <trkpt lat="46.7" lon="5.44921">
        <ele>233</ele>
        <time>2015-04-21T16:52:47Z</time>
      </trkpt>
      <trkpt lat="46.69993" lon="5.44912">
        <ele>232</ele>
        <time>2015-04-21T16:52:51Z</time>
      </trkpt>
      <trkpt lat="46.69986" lon="5.44904">
        <ele>231</ele>
        <time>2015-04-21T16:52:55Z</time>
      </trkpt>
      <trkpt lat="46.6998" lon="5.44895">
        <ele>231</ele>
        <time>2015-04-21T16:52:59Z</time>
      </trkpt>
      <trkpt lat="46.69973" lon="5.44887">
        <ele>230</ele>
        <time>2015-04-21T16:53:03Z</time>
      </trkpt>
      <trkpt lat="46.69964" lon="5.44878">
        <ele>228</ele>
        <time>2015-04-21T16:53:08Z</time>
      </trkpt>
      <trkpt lat="46.69959" lon="5.44868">
        <ele>232</ele>
        <time>2015-04-21T16:53:13Z</time>
      </trkpt>
      <trkpt lat="46.69951" lon="5.44857">
        <ele>230</ele>
        <time>2015-04-21T16:53:17Z</time>
      </trkpt>
      <trkpt lat="46.69943" lon="5.44848">
        <ele>229</ele>
        <time>2015-04-21T16:53:21Z</time>
      </trkpt>
      <trkpt lat="46.69936" lon="5.4484">
        <ele>230</ele>
        <time>2015-04-21T16:53:25Z</time>
      </trkpt>
      <trkpt lat="46.69929" lon="5.4483">
        <ele>231</ele>
        <time>2015-04-21T16:53:30Z</time>
      </trkpt>
      <trkpt lat="46.6992" lon="5.44818">
        <ele>231</ele>
        <time>2015-04-21T16:53:34Z</time>
      </trkpt>
      <trkpt lat="46.69912" lon="5.44806">
        <ele>231</ele>
        <time>2015-04-21T16:53:39Z</time>
      </trkpt>
      <trkpt lat="46.69904" lon="5.44797">
        <ele>231</ele>
        <time>2015-04-21T16:53:43Z</time>
      </trkpt>
      <trkpt lat="46.69895" lon="5.44784">
        <ele>231</ele>
        <time>2015-04-21T16:53:48Z</time>
      </trkpt>
      <trkpt lat="46.69889" lon="5.44772">
        <ele>230</ele>
        <time>2015-04-21T16:53:52Z</time>
      </trkpt>
      <trkpt lat="46.69882" lon="5.44762">
        <ele>228</ele>
        <time>2015-04-21T16:53:56Z</time>
      </trkpt>
      <trkpt lat="46.69875" lon="5.44754">
        <ele>226</ele>
        <time>2015-04-21T16:54:00Z</time>
      </trkpt>
      <trkpt lat="46.69865" lon="5.44743">
        <ele>225</ele>
        <time>2015-04-21T16:54:05Z</time>
      </trkpt>
      <trkpt lat="46.69858" lon="5.44734">
        <ele>224</ele>
        <time>2015-04-21T16:54:10Z</time>
      </trkpt>
      <trkpt lat="46.69849" lon="5.44723">
        <ele>223</ele>
        <time>2015-04-21T16:54:14Z</time>
      </trkpt>
      <trkpt lat="46.69842" lon="5.44714">
        <ele>223</ele>
        <time>2015-04-21T16:54:18Z</time>
      </trkpt>
      <trkpt lat="46.69834" lon="5.44702">
        <ele>224</ele>
        <time>2015-04-21T16:54:23Z</time>
      </trkpt>
      <trkpt lat="46.69828" lon="5.44694">
        <ele>226</ele>
        <time>2015-04-21T16:54:27Z</time>
      </trkpt>
      <trkpt lat="46.69822" lon="5.44685">
        <ele>227</ele>
        <time>2015-04-21T16:54:31Z</time>
      </trkpt>
      <trkpt lat="46.69816" lon="5.44678">
        <ele>225</ele>
        <time>2015-04-21T16:54:35Z</time>
      </trkpt>
      <trkpt lat="46.69807" lon="5.44668">
        <ele>225</ele>
        <time>2015-04-21T16:54:40Z</time>
      </trkpt>
      <trkpt lat="46.698" lon="5.4466">
        <ele>226</ele>
        <time>2015-04-21T16:54:44Z</time>
      </trkpt>
      <trkpt lat="46.6979" lon="5.44648">
        <ele>227</ele>
        <time>2015-04-21T16:54:49Z</time>
      </trkpt>
      <trkpt lat="46.69783" lon="5.44639">
        <ele>228</ele>
        <time>2015-04-21T16:54:53Z</time>
      </trkpt>
      <trkpt lat="46.69774" lon="5.44627">
        <ele>229</ele>
        <time>2015-04-21T16:54:58Z</time>
      </trkpt>
      <trkpt lat="46.69767" lon="5.44618">
        <ele>229</ele>
        <time>2015-04-21T16:55:02Z</time>
      </trkpt>
      <trkpt lat="46.69759" lon="5.44608">
        <ele>227</ele>
        <time>2015-04-21T16:55:07Z</time>
      </trkpt>
      <trkpt lat="46.69753" lon="5.44599">
        <ele>229</ele>
        <time>2015-04-21T16:55:11Z</time>
      </trkpt>
      <trkpt lat="46.69748" lon="5.44591">
        <ele>230</ele>
        <time>2015-04-21T16:55:16Z</time>
      </trkpt>
      <trkpt lat="46.69741" lon="5.44584">
        <ele>233</ele>
        <time>2015-04-21T16:55:20Z</time>
      </trkpt>
      <trkpt lat="46.69733" lon="5.44577">
        <ele>233</ele>
        <time>2015-04-21T16:55:24Z</time>
      </trkpt>
      <trkpt lat="46.69723" lon="5.44564">
        <ele>233</ele>
        <time>2015-04-21T16:55:29Z</time>
      </trkpt>
      <trkpt lat="46.69714" lon="5.44555">
        <ele>232</ele>
        <time>2015-04-21T16:55:33Z</time>
      </trkpt>
      <trkpt lat="46.69705" lon="5.44544">
        <ele>237</ele>
        <time>2015-04-21T16:55:38Z</time>
      </trkpt>
      <trkpt lat="46.69698" lon="5.44537">
        <ele>237</ele>
        <time>2015-04-21T16:55:42Z</time>
      </trkpt>
      <trkpt lat="46.6969" lon="5.44525">
        <ele>235</ele>
        <time>2015-04-21T16:55:47Z</time>
      </trkpt>
      <trkpt lat="46.69683" lon="5.44516">
        <ele>236</ele>
        <time>2015-04-21T16:55:51Z</time>
      </trkpt>
      <trkpt lat="46.69676" lon="5.44507">
        <ele>238</ele>
        <time>2015-04-21T16:55:55Z</time>
      </trkpt>
      <trkpt lat="46.69671" lon="5.44497">
        <ele>236</ele>
        <time>2015-04-21T16:55:59Z</time>
      </trkpt>
      <trkpt lat="46.69663" lon="5.44486">
        <ele>237</ele>
        <time>2015-04-21T16:56:04Z</time>
      </trkpt>
      <trkpt lat="46.69654" lon="5.44476">
        <ele>236</ele>
        <time>2015-04-21T16:56:08Z</time>
      </trkpt>
      <trkpt lat="46.69646" lon="5.44466">
        <ele>235</ele>
        <time>2015-04-21T16:56:12Z</time>
      </trkpt>
      <trkpt lat="46.69637" lon="5.44457">
        <ele>232</ele>
        <time>2015-04-21T16:56:17Z</time>
      </trkpt>
      <trkpt lat="46.69629" lon="5.44443">
        <ele>232</ele>
        <time>2015-04-21T16:56:21Z</time>
      </trkpt>
      <trkpt lat="46.69621" lon="5.44431">
        <ele>229</ele>
        <time>2015-04-21T16:56:26Z</time>
      </trkpt>
      <trkpt lat="46.69614" lon="5.44422">
        <ele>229</ele>
        <time>2015-04-21T16:56:30Z</time>
      </trkpt>
      <trkpt lat="46.69605" lon="5.44411">
        <ele>231</ele>
        <time>2015-04-21T16:56:35Z</time>
      </trkpt>
      <trkpt lat="46.69599" lon="5.44401">
        <ele>231</ele>
        <time>2015-04-21T16:56:39Z</time>
      </trkpt>
      <trkpt lat="46.69592" lon="5.44391">
        <ele>232</ele>
        <time>2015-04-21T16:56:43Z</time>
      </trkpt>
      <trkpt lat="46.69585" lon="5.44381">
        <ele>232</ele>
        <time>2015-04-21T16:56:47Z</time>
      </trkpt>
      <trkpt lat="46.69578" lon="5.44373">
        <ele>229</ele>
        <time>2015-04-21T16:56:51Z</time>
      </trkpt>
      <trkpt lat="46.69572" lon="5.44364">
        <ele>226</ele>
        <time>2015-04-21T16:56:55Z</time>
      </trkpt>
      <trkpt lat="46.69564" lon="5.44355">
        <ele>224</ele>
        <time>2015-04-21T16:56:59Z</time>
      </trkpt>
      <trkpt lat="46.69554" lon="5.44343">
        <ele>225</ele>
        <time>2015-04-21T16:57:04Z</time>
      </trkpt>
      <trkpt lat="46.69545" lon="5.44333">
        <ele>225</ele>
        <time>2015-04-21T16:57:08Z</time>
      </trkpt>
      <trkpt lat="46.69538" lon="5.44322">
        <ele>226</ele>
        <time>2015-04-21T16:57:12Z</time>
      </trkpt>
      <trkpt lat="46.69532" lon="5.44312">
        <ele>225</ele>
        <time>2015-04-21T16:57:16Z</time>
      </trkpt>
      <trkpt lat="46.69524" lon="5.44303">
        <ele>228</ele>
        <time>2015-04-21T16:57:20Z</time>
      </trkpt>
      <trkpt lat="46.69514" lon="5.44292">
        <ele>227</ele>
        <time>2015-04-21T16:57:25Z</time>
      </trkpt>
      <trkpt lat="46.69506" lon="5.44281">
        <ele>227</ele>
        <time>2015-04-21T16:57:29Z</time>
      </trkpt>
      <trkpt lat="46.69498" lon="5.44271">
        <ele>225</ele>
        <time>2015-04-21T16:57:33Z</time>
      </trkpt>
      <trkpt lat="46.69488" lon="5.44257">
        <ele>226</ele>
        <time>2015-04-21T16:57:38Z</time>
      </trkpt>
      <trkpt lat="46.69478" lon="5.44244">
        <ele>225</ele>
        <time>2015-04-21T16:57:43Z</time>
      </trkpt>
      <trkpt lat="46.69471" lon="5.44234">
        <ele>225</ele>
        <time>2015-04-21T16:57:47Z</time>
      </trkpt>
      <trkpt lat="46.69461" lon="5.44222">
        <ele>224</ele>
        <time>2015-04-21T16:57:52Z</time>
      </trkpt>
      <trkpt lat="46.69453" lon="5.44209">
        <ele>227</ele>
        <time>2015-04-21T16:57:57Z</time>
      </trkpt>
      <trkpt lat="46.69446" lon="5.44201">
        <ele>227</ele>
        <time>2015-04-21T16:58:01Z</time>
      </trkpt>
      <trkpt lat="46.69438" lon="5.44194">
        <ele>227</ele>
        <time>2015-04-21T16:58:05Z</time>
      </trkpt>
      <trkpt lat="46.69428" lon="5.44183">
        <ele>226</ele>
        <time>2015-04-21T16:58:09Z</time>
      </trkpt>
      <trkpt lat="46.69416" lon="5.44168">
        <ele>224</ele>
        <time>2015-04-21T16:58:14Z</time>
      </trkpt>
      <trkpt lat="46.69408" lon="5.44156">
        <ele>226</ele>
        <time>2015-04-21T16:58:19Z</time>
      </trkpt>
      <trkpt lat="46.69397" lon="5.44144">
        <ele>227</ele>
        <time>2015-04-21T16:58:23Z</time>
      </trkpt>
      <trkpt lat="46.69387" lon="5.44131">
        <ele>223</ele>
        <time>2015-04-21T16:58:28Z</time>
      </trkpt>
      <trkpt lat="46.69381" lon="5.4412">
        <ele>223</ele>
        <time>2015-04-21T16:58:32Z</time>
      </trkpt>
      <trkpt lat="46.69374" lon="5.44111">
        <ele>224</ele>
        <time>2015-04-21T16:58:36Z</time>
      </trkpt>
      <trkpt lat="46.69369" lon="5.44101">
        <ele>223</ele>
        <time>2015-04-21T16:58:40Z</time>
      </trkpt>
      <trkpt lat="46.69361" lon="5.44092">
        <ele>219</ele>
        <time>2015-04-21T16:58:44Z</time>
      </trkpt>
      <trkpt lat="46.69353" lon="5.44083">
        <ele>218</ele>
        <time>2015-04-21T16:58:48Z</time>
      </trkpt>
      <trkpt lat="46.69343" lon="5.44071">
        <ele>217</ele>
        <time>2015-04-21T16:58:53Z</time>
      </trkpt>
      <trkpt lat="46.69335" lon="5.44062">
        <ele>215</ele>
        <time>2015-04-21T16:58:57Z</time>
      </trkpt>
      <trkpt lat="46.69324" lon="5.44049">
        <ele>215</ele>
        <time>2015-04-21T16:59:02Z</time>
      </trkpt>
      <trkpt lat="46.69317" lon="5.44038">
        <ele>216</ele>
        <time>2015-04-21T16:59:06Z</time>
      </trkpt>
      <trkpt lat="46.69312" lon="5.44027">
        <ele>219</ele>
        <time>2015-04-21T16:59:10Z</time>
      </trkpt>
      <trkpt lat="46.69304" lon="5.44015">
        <ele>219</ele>
        <time>2015-04-21T16:59:15Z</time>
      </trkpt>
      <trkpt lat="46.69295" lon="5.44008">
        <ele>221</ele>
        <time>2015-04-21T16:59:19Z</time>
      </trkpt>
      <trkpt lat="46.69286" lon="5.43996">
        <ele>219</ele>
        <time>2015-04-21T16:59:24Z</time>
      </trkpt>
      <trkpt lat="46.69275" lon="5.43983">
        <ele>218</ele>
        <time>2015-04-21T16:59:29Z</time>
      </trkpt>
      <trkpt lat="46.69267" lon="5.43972">
        <ele>219</ele>
        <time>2015-04-21T16:59:34Z</time>
      </trkpt>
      <trkpt lat="46.69258" lon="5.43958">
        <ele>217</ele>
        <time>2015-04-21T16:59:38Z</time>
      </trkpt>
      <trkpt lat="46.69252" lon="5.43946">
        <ele>218</ele>
        <time>2015-04-21T16:59:42Z</time>
      </trkpt>
      <trkpt lat="46.69242" lon="5.43936">
        <ele>221</ele>
        <time>2015-04-21T16:59:47Z</time>
      </trkpt>
      <trkpt lat="46.69235" lon="5.43929">
        <ele>222</ele>
        <time>2015-04-21T16:59:54Z</time>
      </trkpt>
      <trkpt lat="46.6923" lon="5.43921">
        <ele>221</ele>
        <time>2015-04-21T17:00:00Z</time>
      </trkpt>
      <trkpt lat="46.69223" lon="5.43912">
        <ele>218</ele>
        <time>2015-04-21T17:00:07Z</time>
      </trkpt>
      <trkpt lat="46.69215" lon="5.43907">
        <ele>216</ele>
        <time>2015-04-21T17:00:16Z</time>
      </trkpt>
      <trkpt lat="46.6921" lon="5.43918">
        <ele>215</ele>
        <time>2015-04-21T17:00:31Z</time>
      </trkpt>
      <trkpt lat="46.69208" lon="5.43929">
        <ele>216</ele>
        <time>2015-04-21T17:00:41Z</time>
      </trkpt>
      <trkpt lat="46.69205" lon="5.4394">
        <ele>218</ele>
        <time>2015-04-21T17:00:50Z</time>
      </trkpt>
      <trkpt lat="46.69203" lon="5.43952">
        <ele>220</ele>
        <time>2015-04-21T17:00:58Z</time>
      </trkpt>
      <trkpt lat="46.69201" lon="5.43964">
        <ele>218</ele>
        <time>2015-04-21T17:01:04Z</time>
      </trkpt>
      <trkpt lat="46.692" lon="5.43976">
        <ele>221</ele>
        <time>2015-04-21T17:01:22Z</time>
      </trkpt>
      <trkpt lat="46.69202" lon="5.43988">
        <ele>226</ele>
        <time>2015-04-21T17:01:29Z</time>
      </trkpt>
      <trkpt lat="46.692" lon="5.43999">
        <ele>225</ele>
        <time>2015-04-21T17:01:34Z</time>
      </trkpt>
      <trkpt lat="46.69198" lon="5.44011">
        <ele>225</ele>
        <time>2015-04-21T17:01:40Z</time>
      </trkpt>
      <trkpt lat="46.69194" lon="5.44023">
        <ele>220</ele>
        <time>2015-04-21T17:01:50Z</time>
      </trkpt>
      <trkpt lat="46.69193" lon="5.44038">
        <ele>222</ele>
        <time>2015-04-21T17:01:54Z</time>
      </trkpt>
      <trkpt lat="46.6919" lon="5.44052">
        <ele>220</ele>
        <time>2015-04-21T17:01:59Z</time>
      </trkpt>
      <trkpt lat="46.6919" lon="5.44068">
        <ele>220</ele>
        <time>2015-04-21T17:02:03Z</time>
      </trkpt>
      <trkpt lat="46.69189" lon="5.44085">
        <ele>216</ele>
        <time>2015-04-21T17:02:07Z</time>
      </trkpt>
      <trkpt lat="46.69185" lon="5.44099">
        <ele>213</ele>
        <time>2015-04-21T17:02:11Z</time>
      </trkpt>
      <trkpt lat="46.69185" lon="5.44113">
        <ele>218</ele>
        <time>2015-04-21T17:02:15Z</time>
      </trkpt>
      <trkpt lat="46.69183" lon="5.44124">
        <ele>219</ele>
        <time>2015-04-21T17:02:19Z</time>
      </trkpt>
      <trkpt lat="46.6918" lon="5.44135">
        <ele>224</ele>
        <time>2015-04-21T17:02:23Z</time>
      </trkpt>
      <trkpt lat="46.69177" lon="5.44148">
        <ele>223</ele>
        <time>2015-04-21T17:02:28Z</time>
      </trkpt>
      <trkpt lat="46.69177" lon="5.44162">
        <ele>221</ele>
        <time>2015-04-21T17:02:32Z</time>
      </trkpt>
      <trkpt lat="46.69176" lon="5.44178">
        <ele>216</ele>
        <time>2015-04-21T17:02:36Z</time>
      </trkpt>
      <trkpt lat="46.69175" lon="5.44192">
        <ele>214</ele>
        <time>2015-04-21T17:02:40Z</time>
      </trkpt>
      <trkpt lat="46.69173" lon="5.44205">
        <ele>217</ele>
        <time>2015-04-21T17:02:44Z</time>
      </trkpt>
      <trkpt lat="46.69168" lon="5.4422">
        <ele>219</ele>
        <time>2015-04-21T17:02:49Z</time>
      </trkpt>
      <trkpt lat="46.69166" lon="5.44232">
        <ele>219</ele>
        <time>2015-04-21T17:02:53Z</time>
      </trkpt>
      <trkpt lat="46.69164" lon="5.44249">
        <ele>222</ele>
        <time>2015-04-21T17:02:58Z</time>
      </trkpt>
      <trkpt lat="46.6916" lon="5.44264">
        <ele>222</ele>
        <time>2015-04-21T17:03:02Z</time>
      </trkpt>
      <trkpt lat="46.69163" lon="5.44275">
        <ele>224</ele>
        <time>2015-04-21T17:03:06Z</time>
      </trkpt>
      <trkpt lat="46.69163" lon="5.44286">
        <ele>228</ele>
        <time>2015-04-21T17:03:10Z</time>
      </trkpt>
      <trkpt lat="46.69162" lon="5.44298">
        <ele>226</ele>
        <time>2015-04-21T17:03:14Z</time>
      </trkpt>
      <trkpt lat="46.69161" lon="5.44312">
        <ele>221</ele>
        <time>2015-04-21T17:03:18Z</time>
      </trkpt>
      <trkpt lat="46.69156" lon="5.4433">
        <ele>223</ele>
        <time>2015-04-21T17:03:23Z</time>
      </trkpt>
      <trkpt lat="46.69155" lon="5.44345">
        <ele>222</ele>
        <time>2015-04-21T17:03:27Z</time>
      </trkpt>
      <trkpt lat="46.69152" lon="5.44358">
        <ele>226</ele>
        <time>2015-04-21T17:03:31Z</time>
      </trkpt>
      <trkpt lat="46.6915" lon="5.44371">
        <ele>222</ele>
        <time>2015-04-21T17:03:35Z</time>
      </trkpt>
      <trkpt lat="46.69148" lon="5.44388">
        <ele>220</ele>
        <time>2015-04-21T17:03:40Z</time>
      </trkpt>
      <trkpt lat="46.69147" lon="5.44401">
        <ele>222</ele>
        <time>2015-04-21T17:03:46Z</time>
      </trkpt>
      <trkpt lat="46.69144" lon="5.44413">
        <ele>224</ele>
        <time>2015-04-21T17:03:54Z</time>
      </trkpt>
      <trkpt lat="46.69142" lon="5.44424">
        <ele>223</ele>
        <time>2015-04-21T17:04:02Z</time>
      </trkpt>
      <trkpt lat="46.69139" lon="5.44435">
        <ele>226</ele>
        <time>2015-04-21T17:04:11Z</time>
      </trkpt>
      <trkpt lat="46.69138" lon="5.44446">
        <ele>227</ele>
        <time>2015-04-21T17:04:16Z</time>
      </trkpt>
      <trkpt lat="46.69135" lon="5.44465">
        <ele>223</ele>
        <time>2015-04-21T17:04:21Z</time>
      </trkpt>
      <trkpt lat="46.69132" lon="5.44483">
        <ele>224</ele>
        <time>2015-04-21T17:04:26Z</time>
      </trkpt>
      <trkpt lat="46.69131" lon="5.44498">
        <ele>222</ele>
        <time>2015-04-21T17:04:30Z</time>
      </trkpt>
      <trkpt lat="46.69128" lon="5.44515">
        <ele>227</ele>
        <time>2015-04-21T17:04:35Z</time>
      </trkpt>
      <trkpt lat="46.69123" lon="5.44537">
        <ele>220</ele>
        <time>2015-04-21T17:04:40Z</time>
      </trkpt>
      <trkpt lat="46.69121" lon="5.44555">
        <ele>222</ele>
        <time>2015-04-21T17:04:45Z</time>
      </trkpt>
      <trkpt lat="46.69119" lon="5.44568">
        <ele>224</ele>
        <time>2015-04-21T17:04:49Z</time>
      </trkpt>
      <trkpt lat="46.69118" lon="5.44585">
        <ele>223</ele>
        <time>2015-04-21T17:04:53Z</time>
      </trkpt>
      <trkpt lat="46.69118" lon="5.44597">
        <ele>222</ele>
        <time>2015-04-21T17:04:57Z</time>
      </trkpt>
      <trkpt lat="46.69118" lon="5.44612">
        <ele>223</ele>
        <time>2015-04-21T17:05:01Z</time>
      </trkpt>
      <trkpt lat="46.69116" lon="5.44632">
        <ele>224</ele>
        <time>2015-04-21T17:05:06Z</time>
      </trkpt>
      <trkpt lat="46.69114" lon="5.44648">
        <ele>224</ele>
        <time>2015-04-21T17:05:10Z</time>
      </trkpt>
      <trkpt lat="46.69112" lon="5.44663">
        <ele>222</ele>
        <time>2015-04-21T17:05:14Z</time>
      </trkpt>
      <trkpt lat="46.69111" lon="5.4468">
        <ele>219</ele>
        <time>2015-04-21T17:05:19Z</time>
      </trkpt>
      <trkpt lat="46.69108" lon="5.44692">
        <ele>220</ele>
        <time>2015-04-21T17:05:56Z</time>
      </trkpt>
      <trkpt lat="46.69107" lon="5.44703">
        <ele>223</ele>
        <time>2015-04-21T17:06:01Z</time>
      </trkpt>
      <trkpt lat="46.69108" lon="5.44718">
        <ele>221</ele>
        <time>2015-04-21T17:06:06Z</time>
      </trkpt>
      <trkpt lat="46.69107" lon="5.44729">
        <ele>223</ele>
        <time>2015-04-21T17:06:10Z</time>
      </trkpt>
      <trkpt lat="46.69102" lon="5.44741">
        <ele>220</ele>
        <time>2015-04-21T17:06:15Z</time>
      </trkpt>
      <trkpt lat="46.69101" lon="5.44756">
        <ele>221</ele>
        <time>2015-04-21T17:06:20Z</time>
      </trkpt>
      <trkpt lat="46.691" lon="5.44768">
        <ele>220</ele>
        <time>2015-04-21T17:06:24Z</time>
      </trkpt>
      <trkpt lat="46.69099" lon="5.44781">
        <ele>226</ele>
        <time>2015-04-21T17:06:29Z</time>
      </trkpt>
      <trkpt lat="46.69094" lon="5.44793">
        <ele>227</ele>
        <time>2015-04-21T17:06:34Z</time>
      </trkpt>
      <trkpt lat="46.69095" lon="5.44809">
        <ele>221</ele>
        <time>2015-04-21T17:06:39Z</time>
      </trkpt>
      <trkpt lat="46.69098" lon="5.4482">
        <ele>219</ele>
        <time>2015-04-21T17:06:43Z</time>
      </trkpt>
      <trkpt lat="46.691" lon="5.44836">
        <ele>219</ele>
        <time>2015-04-21T17:06:48Z</time>
      </trkpt>
      <trkpt lat="46.69102" lon="5.44846">
        <ele>221</ele>
        <time>2015-04-21T17:06:52Z</time>
      </trkpt>
      <trkpt lat="46.69105" lon="5.44857">
        <ele>221</ele>
        <time>2015-04-21T17:06:57Z</time>
      </trkpt>
      <trkpt lat="46.6911" lon="5.44868">
        <ele>221</ele>
        <time>2015-04-21T17:07:05Z</time>
      </trkpt>
      <trkpt lat="46.69114" lon="5.44878">
        <ele>215</ele>
        <time>2015-04-21T17:07:12Z</time>
      </trkpt>
      <trkpt lat="46.69119" lon="5.44888">
        <ele>216</ele>
        <time>2015-04-21T17:07:22Z</time>
      </trkpt>
      <trkpt lat="46.69125" lon="5.44897">
        <ele>224</ele>
        <time>2015-04-21T17:07:29Z</time>
      </trkpt>
      <trkpt lat="46.69132" lon="5.44913">
        <ele>222</ele>
        <time>2015-04-21T17:07:34Z</time>
      </trkpt>
      <trkpt lat="46.69139" lon="5.44924">
        <ele>220</ele>
        <time>2015-04-21T17:07:38Z</time>
      </trkpt>
      <trkpt lat="46.69138" lon="5.44938">
        <ele>223</ele>
        <time>2015-04-21T17:07:42Z</time>
      </trkpt>
      <trkpt lat="46.69138" lon="5.44952">
        <ele>222</ele>
        <time>2015-04-21T17:07:46Z</time>
      </trkpt>
      <trkpt lat="46.69142" lon="5.44965">
        <ele>223</ele>
        <time>2015-04-21T17:07:50Z</time>
      </trkpt>
      <trkpt lat="46.69144" lon="5.44979">
        <ele>223</ele>
        <time>2015-04-21T17:07:54Z</time>
      </trkpt>
      <trkpt lat="46.6915" lon="5.44995">
        <ele>224</ele>
        <time>2015-04-21T17:07:59Z</time>
      </trkpt>
      <trkpt lat="46.69158" lon="5.45008">
        <ele>224</ele>
        <time>2015-04-21T17:08:04Z</time>
      </trkpt>
      <trkpt lat="46.69164" lon="5.45019">
        <ele>224</ele>
        <time>2015-04-21T17:08:08Z</time>
      </trkpt>
      <trkpt lat="46.69171" lon="5.45028">
        <ele>224</ele>
        <time>2015-04-21T17:08:12Z</time>
      </trkpt>
      <trkpt lat="46.69178" lon="5.4504">
        <ele>222</ele>
        <time>2015-04-21T17:08:17Z</time>
      </trkpt>
      <trkpt lat="46.69184" lon="5.45049">
        <ele>224</ele>
        <time>2015-04-21T17:08:21Z</time>
      </trkpt>
      <trkpt lat="46.69187" lon="5.45064">
        <ele>226</ele>
        <time>2015-04-21T17:08:26Z</time>
      </trkpt>
      <trkpt lat="46.69192" lon="5.45076">
        <ele>226</ele>
        <time>2015-04-21T17:08:30Z</time>
      </trkpt>
      <trkpt lat="46.69198" lon="5.45088">
        <ele>224</ele>
        <time>2015-04-21T17:08:35Z</time>
      </trkpt>
      <trkpt lat="46.69199" lon="5.451">
        <ele>227</ele>
        <time>2015-04-21T17:08:40Z</time>
      </trkpt>
      <trkpt lat="46.692" lon="5.45113">
        <ele>225</ele>
        <time>2015-04-21T17:08:47Z</time>
      </trkpt>
      <trkpt lat="46.692" lon="5.45125">
        <ele>230</ele>
        <time>2015-04-21T17:08:54Z</time>
      </trkpt>
      <trkpt lat="46.69199" lon="5.45136">
        <ele>231</ele>
        <time>2015-04-21T17:09:00Z</time>
      </trkpt>
      <trkpt lat="46.69197" lon="5.45148">
        <ele>237</ele>
        <time>2015-04-21T17:09:09Z</time>
      </trkpt>
      <trkpt lat="46.69196" lon="5.45161">
        <ele>234</ele>
        <time>2015-04-21T17:09:17Z</time>
      </trkpt>
      <trkpt lat="46.69197" lon="5.45173">
        <ele>228</ele>
        <time>2015-04-21T17:09:26Z</time>
      </trkpt>
      <trkpt lat="46.692" lon="5.45185">
        <ele>227</ele>
        <time>2015-04-21T17:09:35Z</time>
      </trkpt>
      <trkpt lat="46.69199" lon="5.45198">
        <ele>231</ele>
        <time>2015-04-21T17:09:44Z</time>
      </trkpt>
      <trkpt lat="46.69197" lon="5.4521">
        <ele>232</ele>
        <time>2015-04-21T17:09:56Z</time>
      </trkpt>
      <trkpt lat="46.692" lon="5.45222">
        <ele>231</ele>
        <time>2015-04-21T17:10:06Z</time>
      </trkpt>
      <trkpt lat="46.69199" lon="5.45234">
        <ele>231</ele>
        <time>2015-04-21T17:10:14Z</time>
      </trkpt>
      <trkpt lat="46.69199" lon="5.45246">
        <ele>231</ele>
        <time>2015-04-21T17:10:21Z</time>
      </trkpt>
      <trkpt lat="46.69201" lon="5.45259">
        <ele>235</ele>
        <time>2015-04-21T17:10:29Z</time>
      </trkpt>
      <trkpt lat="46.69198" lon="5.4527">
        <ele>235</ele>
        <time>2015-04-21T17:10:35Z</time>
      </trkpt>
      <trkpt lat="46.69197" lon="5.45282">
        <ele>236</ele>
        <time>2015-04-21T17:10:41Z</time>
      </trkpt>
      <trkpt lat="46.69194" lon="5.45294">
        <ele>237</ele>
        <time>2015-04-21T17:10:48Z</time>
      </trkpt>
      <trkpt lat="46.69194" lon="5.45306">
        <ele>234</ele>
        <time>2015-04-21T17:10:56Z</time>
      </trkpt>
      <trkpt lat="46.69193" lon="5.45319">
        <ele>231</ele>
        <time>2015-04-21T17:11:03Z</time>
      </trkpt>
      <trkpt lat="46.69194" lon="5.45331">
        <ele>232</ele>
        <time>2015-04-21T17:11:09Z</time>
      </trkpt>
      <trkpt lat="46.69193" lon="5.45342">
        <ele>233</ele>
        <time>2015-04-21T17:11:15Z</time>
      </trkpt>
      <trkpt lat="46.69193" lon="5.45354">
        <ele>235</ele>
        <time>2015-04-21T17:11:21Z</time>
      </trkpt>
      <trkpt lat="46.69197" lon="5.45364">
        <ele>237</ele>
        <time>2015-04-21T17:11:29Z</time>
      </trkpt>
      <trkpt lat="46.69201" lon="5.45374">
        <ele>236</ele>
        <time>2015-04-21T17:11:35Z</time>
      </trkpt>
      <trkpt lat="46.692" lon="5.45387">
        <ele>233</ele>
        <time>2015-04-21T17:11:42Z</time>
      </trkpt>
      <trkpt lat="46.69201" lon="5.45399">
        <ele>232</ele>
        <time>2015-04-21T17:11:50Z</time>
      </trkpt>
      <trkpt lat="46.69201" lon="5.45412">
        <ele>235</ele>
        <time>2015-04-21T17:11:58Z</time>
      </trkpt>
      <trkpt lat="46.69203" lon="5.45424">
        <ele>234</ele>
        <time>2015-04-21T17:12:10Z</time>
      </trkpt>
      <trkpt lat="46.69204" lon="5.45436">
        <ele>238</ele>
        <time>2015-04-21T17:12:17Z</time>
      </trkpt>
      <trkpt lat="46.69204" lon="5.45448">
        <ele>238</ele>
        <time>2015-04-21T17:12:23Z</time>
      </trkpt>
      <trkpt lat="46.69204" lon="5.4546">
        <ele>238</ele>
        <time>2015-04-21T17:12:29Z</time>
      </trkpt>
      <trkpt lat="46.69205" lon="5.45472">
        <ele>239</ele>
        <time>2015-04-21T17:12:35Z</time>
      </trkpt>
      <trkpt lat="46.69206" lon="5.45484">
        <ele>241</ele>
        <time>2015-04-21T17:12:42Z</time>
      </trkpt>
      <trkpt lat="46.69205" lon="5.45497">
        <ele>243</ele>
        <time>2015-04-21T17:12:49Z</time>
      </trkpt>
      <trkpt lat="46.69206" lon="5.45509">
        <ele>238</ele>
        <time>2015-04-21T17:12:58Z</time>
      </trkpt>
      <trkpt lat="46.69206" lon="5.45521">
        <ele>233</ele>
        <time>2015-04-21T17:13:05Z</time>
      </trkpt>
      <trkpt lat="46.69204" lon="5.45533">
        <ele>233</ele>
        <time>2015-04-21T17:13:11Z</time>
      </trkpt>
      <trkpt lat="46.69203" lon="5.45544">
        <ele>233</ele>
        <time>2015-04-21T17:13:17Z</time>
      </trkpt>
      <trkpt lat="46.69202" lon="5.45557">
        <ele>236</ele>
        <time>2015-04-21T17:13:23Z</time>
      </trkpt>
      <trkpt lat="46.69205" lon="5.45569">
        <ele>234</ele>
        <time>2015-04-21T17:13:30Z</time>
      </trkpt>
      <trkpt lat="46.69207" lon="5.45581">
        <ele>235</ele>
        <time>2015-04-21T17:13:38Z</time>
      </trkpt>
      <trkpt lat="46.69207" lon="5.45593">
        <ele>236</ele>
        <time>2015-04-21T17:13:46Z</time>
      </trkpt>
      <trkpt lat="46.69206" lon="5.45605">
        <ele>240</ele>
        <time>2015-04-21T17:13:53Z</time>
      </trkpt>
      <trkpt lat="46.69209" lon="5.45616">
        <ele>240</ele>
        <time>2015-04-21T17:14:00Z</time>
      </trkpt>
      <trkpt lat="46.69211" lon="5.45629">
        <ele>238</ele>
        <time>2015-04-21T17:14:07Z</time>
      </trkpt>
      <trkpt lat="46.69218" lon="5.45635">
        <ele>235</ele>
        <time>2015-04-21T17:14:12Z</time>
      </trkpt>
      <trkpt lat="46.69226" lon="5.45636">
        <ele>234</ele>
        <time>2015-04-21T17:14:17Z</time>
      </trkpt>
      <trkpt lat="46.69234" lon="5.45634">
        <ele>233</ele>
        <time>2015-04-21T17:14:22Z</time>
      </trkpt>
      <trkpt lat="46.69241" lon="5.45634">
        <ele>232</ele>
        <time>2015-04-21T17:14:28Z</time>
      </trkpt>
      <trkpt lat="46.6925" lon="5.45635">
        <ele>234</ele>
        <time>2015-04-21T17:14:34Z</time>
      </trkpt>
      <trkpt lat="46.69258" lon="5.45633">
        <ele>232</ele>
        <time>2015-04-21T17:14:40Z</time>
      </trkpt>
      <trkpt lat="46.69267" lon="5.45631">
        <ele>230</ele>
        <time>2015-04-21T17:14:46Z</time>
      </trkpt>
      <trkpt lat="46.69275" lon="5.45628">
        <ele>228</ele>
        <time>2015-04-21T17:14:52Z</time>
      </trkpt>
      <trkpt lat="46.69283" lon="5.45627">
        <ele>230</ele>
        <time>2015-04-21T17:14:58Z</time>
      </trkpt>
      <trkpt lat="46.69291" lon="5.45627">
        <ele>231</ele>
        <time>2015-04-21T17:15:04Z</time>
      </trkpt>
      <trkpt lat="46.69299" lon="5.45625">
        <ele>232</ele>
        <time>2015-04-21T17:15:10Z</time>
      </trkpt>
      <trkpt lat="46.69308" lon="5.45622">
        <ele>230</ele>
        <time>2015-04-21T17:15:16Z</time>
      </trkpt>
      <trkpt lat="46.69316" lon="5.45621">
        <ele>229</ele>
        <time>2015-04-21T17:15:22Z</time>
      </trkpt>
      <trkpt lat="46.69325" lon="5.45619">
        <ele>229</ele>
        <time>2015-04-21T17:15:29Z</time>
      </trkpt>
      <trkpt lat="46.69332" lon="5.45617">
        <ele>228</ele>
        <time>2015-04-21T17:15:36Z</time>
      </trkpt>
      <trkpt lat="46.69341" lon="5.45614">
        <ele>226</ele>
        <time>2015-04-21T17:15:43Z</time>
      </trkpt>
      <trkpt lat="46.69349" lon="5.45614">
        <ele>231</ele>
        <time>2015-04-21T17:15:51Z</time>
      </trkpt>
      <trkpt lat="46.69356" lon="5.45615">
        <ele>231</ele>
        <time>2015-04-21T17:15:58Z</time>
      </trkpt>
      <trkpt lat="46.69364" lon="5.45613">
        <ele>230</ele>
        <time>2015-04-21T17:16:04Z</time>
      </trkpt>
      <trkpt lat="46.69372" lon="5.45612">
        <ele>229</ele>
        <time>2015-04-21T17:16:10Z</time>
      </trkpt>
      <trkpt lat="46.6938" lon="5.4561">
        <ele>228</ele>
        <time>2015-04-21T17:16:16Z</time>
      </trkpt>
      <trkpt lat="46.69389" lon="5.45608">
        <ele>227</ele>
        <time>2015-04-21T17:16:23Z</time>
      </trkpt>
      <trkpt lat="46.69397" lon="5.45607">
        <ele>228</ele>
        <time>2015-04-21T17:16:29Z</time>
      </trkpt>
      <trkpt lat="46.69404" lon="5.45605">
        <ele>228</ele>
        <time>2015-04-21T17:16:35Z</time>
      </trkpt>
      <trkpt lat="46.69413" lon="5.45602">
        <ele>230</ele>
        <time>2015-04-21T17:16:42Z</time>
      </trkpt>
      <trkpt lat="46.69421" lon="5.45601">
        <ele>230</ele>
        <time>2015-04-21T17:16:49Z</time>
      </trkpt>
      <trkpt lat="46.69429" lon="5.45601">
        <ele>230</ele>
        <time>2015-04-21T17:17:00Z</time>
      </trkpt>
      <trkpt lat="46.69438" lon="5.45604">
        <ele>233</ele>
        <time>2015-04-21T17:17:08Z</time>
      </trkpt>
      <trkpt lat="46.69445" lon="5.45602">
        <ele>234</ele>
        <time>2015-04-21T17:17:14Z</time>
      </trkpt>
      <trkpt lat="46.69454" lon="5.456">
        <ele>234</ele>
        <time>2015-04-21T17:17:19Z</time>
      </trkpt>
      <trkpt lat="46.69462" lon="5.456">
        <ele>232</ele>
        <time>2015-04-21T17:17:26Z</time>
      </trkpt>
      <trkpt lat="46.69469" lon="5.45601">
        <ele>234</ele>
        <time>2015-04-21T17:17:37Z</time>
      </trkpt>
      <trkpt lat="46.69477" lon="5.456">
        <ele>236</ele>
        <time>2015-04-21T17:17:49Z</time>
      </trkpt>
      <trkpt lat="46.69484" lon="5.45605">
        <ele>235</ele>
        <time>2015-04-21T17:17:54Z</time>
      </trkpt>
      <trkpt lat="46.69491" lon="5.45609">
        <ele>230</ele>
        <time>2015-04-21T17:17:58Z</time>
      </trkpt>
      <trkpt lat="46.69497" lon="5.45615">
        <ele>229</ele>
        <time>2015-04-21T17:18:04Z</time>
      </trkpt>
      <trkpt lat="46.69504" lon="5.45623">
        <ele>227</ele>
        <time>2015-04-21T17:18:11Z</time>
      </trkpt>
      <trkpt lat="46.6951" lon="5.45631">
        <ele>230</ele>
        <time>2015-04-21T17:18:19Z</time>
      </trkpt>
      <trkpt lat="46.69513" lon="5.45642">
        <ele>229</ele>
        <time>2015-04-21T17:18:25Z</time>
      </trkpt>
      <trkpt lat="46.69518" lon="5.45652">
        <ele>231</ele>
        <time>2015-04-21T17:18:31Z</time>
      </trkpt>
      <trkpt lat="46.69524" lon="5.45661">
        <ele>234</ele>
        <time>2015-04-21T17:18:38Z</time>
      </trkpt>
      <trkpt lat="46.6953" lon="5.45669">
        <ele>237</ele>
        <time>2015-04-21T17:18:45Z</time>
      </trkpt>
      <trkpt lat="46.69537" lon="5.4567">
        <ele>236</ele>
        <time>2015-04-21T17:18:51Z</time>
      </trkpt>
      <trkpt lat="46.69545" lon="5.45672">
        <ele>235</ele>
        <time>2015-04-21T17:18:55Z</time>
      </trkpt>
      <trkpt lat="46.69553" lon="5.45676">
        <ele>236</ele>
        <time>2015-04-21T17:19:01Z</time>
      </trkpt>
      <trkpt lat="46.69562" lon="5.45679">
        <ele>234</ele>
        <time>2015-04-21T17:19:16Z</time>
      </trkpt>
      <trkpt lat="46.6957" lon="5.45681">
        <ele>239</ele>
        <time>2015-04-21T17:19:21Z</time>
      </trkpt>
      <trkpt lat="46.69578" lon="5.45685">
        <ele>238</ele>
        <time>2015-04-21T17:19:26Z</time>
      </trkpt>
      <trkpt lat="46.69587" lon="5.45686">
        <ele>236</ele>
        <time>2015-04-21T17:19:31Z</time>
      </trkpt>
      <trkpt lat="46.69595" lon="5.45685">
        <ele>235</ele>
        <time>2015-04-21T17:19:35Z</time>
      </trkpt>
      <trkpt lat="46.69603" lon="5.45682">
        <ele>234</ele>
        <time>2015-04-21T17:19:40Z</time>
      </trkpt>
      <trkpt lat="46.69612" lon="5.45679">
        <ele>232</ele>
        <time>2015-04-21T17:19:45Z</time>
      </trkpt>
      <trkpt lat="46.69622" lon="5.45675">
        <ele>229</ele>
        <time>2015-04-21T17:19:50Z</time>
      </trkpt>
      <trkpt lat="46.69629" lon="5.45673">
        <ele>231</ele>
        <time>2015-04-21T17:19:54Z</time>
      </trkpt>
      <trkpt lat="46.69637" lon="5.45669">
        <ele>229</ele>
        <time>2015-04-21T17:19:58Z</time>
      </trkpt>
      <trkpt lat="46.69645" lon="5.45664">
        <ele>229</ele>
        <time>2015-04-21T17:20:03Z</time>
      </trkpt>
      <trkpt lat="46.69652" lon="5.4566">
        <ele>228</ele>
        <time>2015-04-21T17:20:08Z</time>
      </trkpt>
      <trkpt lat="46.6966" lon="5.45655">
        <ele>226</ele>
        <time>2015-04-21T17:20:13Z</time>
      </trkpt>
      <trkpt lat="46.69668" lon="5.45651">
        <ele>226</ele>
        <time>2015-04-21T17:20:19Z</time>
      </trkpt>
      <trkpt lat="46.69676" lon="5.45649">
        <ele>228</ele>
        <time>2015-04-21T17:20:25Z</time>
      </trkpt>
      <trkpt lat="46.69684" lon="5.45648">
        <ele>231</ele>
        <time>2015-04-21T17:20:31Z</time>
      </trkpt>
      <trkpt lat="46.69692" lon="5.45645">
        <ele>228</ele>
        <time>2015-04-21T17:20:37Z</time>
      </trkpt>
      <trkpt lat="46.697" lon="5.45641">
        <ele>228</ele>
        <time>2015-04-21T17:20:42Z</time>
      </trkpt>
      <trkpt lat="46.69707" lon="5.45638">
        <ele>228</ele>
        <time>2015-04-21T17:20:48Z</time>
      </trkpt>
      <trkpt lat="46.69715" lon="5.45633">
        <ele>227</ele>
        <time>2015-04-21T17:20:54Z</time>
      </trkpt>
      <trkpt lat="46.69722" lon="5.4563">
        <ele>225</ele>
        <time>2015-04-21T17:21:00Z</time>
      </trkpt>
      <trkpt lat="46.6973" lon="5.45628">
        <ele>227</ele>
        <time>2015-04-21T17:21:06Z</time>
      </trkpt>
      <trkpt lat="46.69738" lon="5.45627">
        <ele>227</ele>
        <time>2015-04-21T17:21:11Z</time>
      </trkpt>
      <trkpt lat="46.69745" lon="5.45626">
        <ele>229</ele>
        <time>2015-04-21T17:21:16Z</time>
      </trkpt>
      <trkpt lat="46.69754" lon="5.45628">
        <ele>233</ele>
        <time>2015-04-21T17:21:23Z</time>
      </trkpt>
      <trkpt lat="46.69763" lon="5.45625">
        <ele>234</ele>
        <time>2015-04-21T17:21:30Z</time>
      </trkpt>
      <trkpt lat="46.6977" lon="5.45622">
        <ele>234</ele>
        <time>2015-04-21T17:21:35Z</time>
      </trkpt>
      <trkpt lat="46.69778" lon="5.45619">
        <ele>234</ele>
        <time>2015-04-21T17:21:40Z</time>
      </trkpt>
      <trkpt lat="46.69786" lon="5.45615">
        <ele>233</ele>
        <time>2015-04-21T17:21:46Z</time>
      </trkpt>
      <trkpt lat="46.69794" lon="5.45609">
        <ele>229</ele>
        <time>2015-04-21T17:21:53Z</time>
      </trkpt>
      <trkpt lat="46.69801" lon="5.45606">
        <ele>227</ele>
        <time>2015-04-21T17:21:59Z</time>
      </trkpt>
      <trkpt lat="46.6981" lon="5.45605">
        <ele>226</ele>
        <time>2015-04-21T17:22:06Z</time>
      </trkpt>
      <trkpt lat="46.69818" lon="5.45608">
        <ele>230</ele>
        <time>2015-04-21T17:22:15Z</time>
      </trkpt>
      <trkpt lat="46.69824" lon="5.45613">
        <ele>230</ele>
        <time>2015-04-21T17:22:22Z</time>
      </trkpt>
      <trkpt lat="46.69833" lon="5.45618">
        <ele>230</ele>
        <time>2015-04-21T17:22:27Z</time>
      </trkpt>
      <trkpt lat="46.69829" lon="5.45629">
        <ele>231</ele>
        <time>2015-04-21T17:22:35Z</time>
      </trkpt>
      <trkpt lat="46.69824" lon="5.45637">
        <ele>230</ele>
        <time>2015-04-21T17:22:40Z</time>
      </trkpt>
      <trkpt lat="46.69818" lon="5.45647">
        <ele>234</ele>
        <time>2015-04-21T17:22:46Z</time>
      </trkpt>
      <trkpt lat="46.69815" lon="5.45657">
        <ele>233</ele>
        <time>2015-04-21T17:22:52Z</time>
      </trkpt>
      <trkpt lat="46.69812" lon="5.45669">
        <ele>231</ele>
        <time>2015-04-21T17:22:57Z</time>
      </trkpt>
      <trkpt lat="46.69808" lon="5.4568">
        <ele>234</ele>
        <time>2015-04-21T17:23:03Z</time>
      </trkpt>
      <trkpt lat="46.69805" lon="5.45691">
        <ele>237</ele>
        <time>2015-04-21T17:23:09Z</time>
      </trkpt>
      <trkpt lat="46.69802" lon="5.45702">
        <ele>236</ele>
        <time>2015-04-21T17:23:15Z</time>
      </trkpt>
      <trkpt lat="46.69798" lon="5.45712">
        <ele>235</ele>
        <time>2015-04-21T17:23:21Z</time>
      </trkpt>
      <trkpt lat="46.69795" lon="5.45722">
        <ele>237</ele>
        <time>2015-04-21T17:23:26Z</time>
      </trkpt>
      <trkpt lat="46.6979" lon="5.45734">
        <ele>238</ele>
        <time>2015-04-21T17:23:30Z</time>
      </trkpt>
      <trkpt lat="46.69786" lon="5.45747">
        <ele>237</ele>
        <time>2015-04-21T17:23:34Z</time>
      </trkpt>
      <trkpt lat="46.6978" lon="5.45764">
        <ele>236</ele>
        <time>2015-04-21T17:23:39Z</time>
      </trkpt>
      <trkpt lat="46.69777" lon="5.45778">
        <ele>234</ele>
        <time>2015-04-21T17:23:43Z</time>
      </trkpt>
      <trkpt lat="46.69774" lon="5.45792">
        <ele>233</ele>
        <time>2015-04-21T17:23:47Z</time>
      </trkpt>
      <trkpt lat="46.69769" lon="5.45809">
        <ele>230</ele>
        <time>2015-04-21T17:23:52Z</time>
      </trkpt>
      <trkpt lat="46.69764" lon="5.45825">
        <ele>230</ele>
        <time>2015-04-21T17:23:57Z</time>
      </trkpt>
      <trkpt lat="46.6976" lon="5.45838">
        <ele>230</ele>
        <time>2015-04-21T17:24:01Z</time>
      </trkpt>
      <trkpt lat="46.69755" lon="5.45854">
        <ele>229</ele>
        <time>2015-04-21T17:24:06Z</time>
      </trkpt>
      <trkpt lat="46.69749" lon="5.45873">
        <ele>228</ele>
        <time>2015-04-21T17:24:11Z</time>
      </trkpt>
      <trkpt lat="46.69744" lon="5.45886">
        <ele>231</ele>
        <time>2015-04-21T17:24:15Z</time>
      </trkpt>
      <trkpt lat="46.69739" lon="5.45904">
        <ele>229</ele>
        <time>2015-04-21T17:24:20Z</time>
      </trkpt>
      <trkpt lat="46.69734" lon="5.45918">
        <ele>229</ele>
        <time>2015-04-21T17:24:24Z</time>
      </trkpt>
      <trkpt lat="46.6973" lon="5.45932">
        <ele>229</ele>
        <time>2015-04-21T17:24:28Z</time>
      </trkpt>
      <trkpt lat="46.69725" lon="5.45949">
        <ele>229</ele>
        <time>2015-04-21T17:24:33Z</time>
      </trkpt>
      <trkpt lat="46.69721" lon="5.45962">
        <ele>229</ele>
        <time>2015-04-21T17:24:37Z</time>
      </trkpt>
      <trkpt lat="46.69717" lon="5.45975">
        <ele>229</ele>
        <time>2015-04-21T17:24:41Z</time>
      </trkpt>
      <trkpt lat="46.69711" lon="5.45986">
        <ele>231</ele>
        <time>2015-04-21T17:24:45Z</time>
      </trkpt>
      <trkpt lat="46.69707" lon="5.46003">
        <ele>231</ele>
        <time>2015-04-21T17:24:50Z</time>
      </trkpt>
      <trkpt lat="46.69702" lon="5.46014">
        <ele>233</ele>
        <time>2015-04-21T17:24:54Z</time>
      </trkpt>
      <trkpt lat="46.69695" lon="5.46025">
        <ele>232</ele>
        <time>2015-04-21T17:24:58Z</time>
      </trkpt>
      <trkpt lat="46.69691" lon="5.46038">
        <ele>233</ele>
        <time>2015-04-21T17:25:02Z</time>
      </trkpt>
      <trkpt lat="46.6969" lon="5.46056">
        <ele>233</ele>
        <time>2015-04-21T17:25:07Z</time>
      </trkpt>
      <trkpt lat="46.69687" lon="5.4607">
        <ele>231</ele>
        <time>2015-04-21T17:25:11Z</time>
      </trkpt>
      <trkpt lat="46.69682" lon="5.46086">
        <ele>230</ele>
        <time>2015-04-21T17:25:16Z</time>
      </trkpt>
      <trkpt lat="46.69679" lon="5.46103">
        <ele>231</ele>
        <time>2015-04-21T17:25:21Z</time>
      </trkpt>
      <trkpt lat="46.69673" lon="5.46115">
        <ele>236</ele>
        <time>2015-04-21T17:25:25Z</time>
      </trkpt>
      <trkpt lat="46.69666" lon="5.46131">
        <ele>230</ele>
        <time>2015-04-21T17:25:30Z</time>
      </trkpt>
      <trkpt lat="46.69659" lon="5.46144">
        <ele>229</ele>
        <time>2015-04-21T17:25:34Z</time>
      </trkpt>
      <trkpt lat="46.69652" lon="5.46156">
        <ele>227</ele>
        <time>2015-04-21T17:25:38Z</time>
      </trkpt>
      <trkpt lat="46.69647" lon="5.46175">
        <ele>226</ele>
        <time>2015-04-21T17:25:43Z</time>
      </trkpt>
      <trkpt lat="46.69641" lon="5.46188">
        <ele>225</ele>
        <time>2015-04-21T17:25:48Z</time>
      </trkpt>
      <trkpt lat="46.69636" lon="5.46204">
        <ele>231</ele>
        <time>2015-04-21T17:25:52Z</time>
      </trkpt>
      <trkpt lat="46.69631" lon="5.46219">
        <ele>237</ele>
        <time>2015-04-21T17:25:57Z</time>
      </trkpt>
      <trkpt lat="46.69627" lon="5.46231">
        <ele>240</ele>
        <time>2015-04-21T17:26:01Z</time>
      </trkpt>
      <trkpt lat="46.69624" lon="5.46249">
        <ele>237</ele>
        <time>2015-04-21T17:26:06Z</time>
      </trkpt>
      <trkpt lat="46.69618" lon="5.46266">
        <ele>234</ele>
        <time>2015-04-21T17:26:11Z</time>
      </trkpt>
      <trkpt lat="46.69615" lon="5.46282">
        <ele>239</ele>
        <time>2015-04-21T17:26:15Z</time>
      </trkpt>
      <trkpt lat="46.69612" lon="5.46296">
        <ele>241</ele>
        <time>2015-04-21T17:26:19Z</time>
      </trkpt>
      <trkpt lat="46.69608" lon="5.46308">
        <ele>242</ele>
        <time>2015-04-21T17:26:23Z</time>
      </trkpt>
      <trkpt lat="46.69602" lon="5.4632">
        <ele>243</ele>
        <time>2015-04-21T17:26:27Z</time>
      </trkpt>
      <trkpt lat="46.69597" lon="5.46337">
        <ele>243</ele>
        <time>2015-04-21T17:26:32Z</time>
      </trkpt>
      <trkpt lat="46.6959" lon="5.46352">
        <ele>243</ele>
        <time>2015-04-21T17:26:37Z</time>
      </trkpt>
      <trkpt lat="46.69587" lon="5.46371">
        <ele>243</ele>
        <time>2015-04-21T17:26:42Z</time>
      </trkpt>
      <trkpt lat="46.69586" lon="5.46387">
        <ele>241</ele>
        <time>2015-04-21T17:26:46Z</time>
      </trkpt>
      <trkpt lat="46.69578" lon="5.46401">
        <ele>240</ele>
        <time>2015-04-21T17:26:51Z</time>
      </trkpt>
      <trkpt lat="46.69575" lon="5.46414">
        <ele>236</ele>
        <time>2015-04-21T17:26:55Z</time>
      </trkpt>
      <trkpt lat="46.69569" lon="5.46425">
        <ele>239</ele>
        <time>2015-04-21T17:26:59Z</time>
      </trkpt>
      <trkpt lat="46.69561" lon="5.46434">
        <ele>242</ele>
        <time>2015-04-21T17:27:03Z</time>
      </trkpt>
      <trkpt lat="46.6955" lon="5.46444">
        <ele>243</ele>
        <time>2015-04-21T17:27:08Z</time>
      </trkpt>
      <trkpt lat="46.69541" lon="5.46453">
        <ele>241</ele>
        <time>2015-04-21T17:27:12Z</time>
      </trkpt>
      <trkpt lat="46.6953" lon="5.46464">
        <ele>242</ele>
        <time>2015-04-21T17:27:17Z</time>
      </trkpt>
      <trkpt lat="46.69522" lon="5.46475">
        <ele>244</ele>
        <time>2015-04-21T17:27:21Z</time>
      </trkpt>
      <trkpt lat="46.69513" lon="5.46489">
        <ele>235</ele>
        <time>2015-04-21T17:27:26Z</time>
      </trkpt>
      <trkpt lat="46.69505" lon="5.465">
        <ele>240</ele>
        <time>2015-04-21T17:27:30Z</time>
      </trkpt>
      <trkpt lat="46.69498" lon="5.46512">
        <ele>239</ele>
        <time>2015-04-21T17:27:34Z</time>
      </trkpt>
      <trkpt lat="46.69489" lon="5.46522">
        <ele>242</ele>
        <time>2015-04-21T17:27:38Z</time>
      </trkpt>
      <trkpt lat="46.69482" lon="5.46534">
        <ele>237</ele>
        <time>2015-04-21T17:27:42Z</time>
      </trkpt>
      <trkpt lat="46.69474" lon="5.46543">
        <ele>238</ele>
        <time>2015-04-21T17:27:46Z</time>
      </trkpt>
      <trkpt lat="46.69463" lon="5.46554">
        <ele>238</ele>
        <time>2015-04-21T17:27:51Z</time>
      </trkpt>
      <trkpt lat="46.69453" lon="5.46564">
        <ele>238</ele>
        <time>2015-04-21T17:27:55Z</time>
      </trkpt>
      <trkpt lat="46.69443" lon="5.46573">
        <ele>242</ele>
        <time>2015-04-21T17:28:00Z</time>
      </trkpt>
      <trkpt lat="46.69431" lon="5.46577">
        <ele>235</ele>
        <time>2015-04-21T17:28:04Z</time>
      </trkpt>
      <trkpt lat="46.69419" lon="5.46583">
        <ele>237</ele>
        <time>2015-04-21T17:28:09Z</time>
      </trkpt>
      <trkpt lat="46.69411" lon="5.46589">
        <ele>239</ele>
        <time>2015-04-21T17:28:13Z</time>
      </trkpt>
      <trkpt lat="46.694" lon="5.46595">
        <ele>239</ele>
        <time>2015-04-21T17:28:17Z</time>
      </trkpt>
      <trkpt lat="46.69388" lon="5.46603">
        <ele>242</ele>
        <time>2015-04-21T17:28:21Z</time>
      </trkpt>
      <trkpt lat="46.69379" lon="5.46613">
        <ele>245</ele>
        <time>2015-04-21T17:28:25Z</time>
      </trkpt>
      <trkpt lat="46.69364" lon="5.46624">
        <ele>244</ele>
        <time>2015-04-21T17:28:30Z</time>
      </trkpt>
      <trkpt lat="46.69355" lon="5.46636">
        <ele>245</ele>
        <time>2015-04-21T17:28:34Z</time>
      </trkpt>
      <trkpt lat="46.69345" lon="5.46646">
        <ele>250</ele>
        <time>2015-04-21T17:28:38Z</time>
      </trkpt>
      <trkpt lat="46.69333" lon="5.46658">
        <ele>254</ele>
        <time>2015-04-21T17:28:43Z</time>
      </trkpt>
      <trkpt lat="46.69321" lon="5.46665">
        <ele>258</ele>
        <time>2015-04-21T17:28:47Z</time>
      </trkpt>
      <trkpt lat="46.69305" lon="5.46676">
        <ele>253</ele>
        <time>2015-04-21T17:28:52Z</time>
      </trkpt>
      <trkpt lat="46.69288" lon="5.46687">
        <ele>254</ele>
        <time>2015-04-21T17:28:57Z</time>
      </trkpt>
      <trkpt lat="46.69275" lon="5.46696">
        <ele>252</ele>
        <time>2015-04-21T17:29:01Z</time>
      </trkpt>
      <trkpt lat="46.69266" lon="5.46707">
        <ele>249</ele>
        <time>2015-04-21T17:29:05Z</time>
      </trkpt>
      <trkpt lat="46.69254" lon="5.46718">
        <ele>251</ele>
        <time>2015-04-21T17:29:10Z</time>
      </trkpt>
      <trkpt lat="46.6924" lon="5.46727">
        <ele>256</ele>
        <time>2015-04-21T17:29:15Z</time>
      </trkpt>
      <trkpt lat="46.69232" lon="5.46738">
        <ele>256</ele>
        <time>2015-04-21T17:29:19Z</time>
      </trkpt>
      <trkpt lat="46.69226" lon="5.46755">
        <ele>256</ele>
        <time>2015-04-21T17:29:24Z</time>
      </trkpt>
      <trkpt lat="46.69214" lon="5.46764">
        <ele>256</ele>
        <time>2015-04-21T17:29:28Z</time>
      </trkpt>
      <trkpt lat="46.692" lon="5.46776">
        <ele>253</ele>
        <time>2015-04-21T17:29:33Z</time>
      </trkpt>
      <trkpt lat="46.69188" lon="5.46787">
        <ele>254</ele>
        <time>2015-04-21T17:29:37Z</time>
      </trkpt>
      <trkpt lat="46.69175" lon="5.46798">
        <ele>250</ele>
        <time>2015-04-21T17:29:42Z</time>
      </trkpt>
      <trkpt lat="46.69162" lon="5.46808">
        <ele>247</ele>
        <time>2015-04-21T17:29:46Z</time>
      </trkpt>
      <trkpt lat="46.69148" lon="5.46814">
        <ele>249</ele>
        <time>2015-04-21T17:29:51Z</time>
      </trkpt>
      <trkpt lat="46.69141" lon="5.4682">
        <ele>252</ele>
        <time>2015-04-21T17:29:55Z</time>
      </trkpt>
      <trkpt lat="46.69134" lon="5.46829">
        <ele>247</ele>
        <time>2015-04-21T17:29:59Z</time>
      </trkpt>
      <trkpt lat="46.69126" lon="5.46837">
        <ele>246</ele>
        <time>2015-04-21T17:30:03Z</time>
      </trkpt>
      <trkpt lat="46.69118" lon="5.46844">
        <ele>246</ele>
        <time>2015-04-21T17:30:07Z</time>
      </trkpt>
      <trkpt lat="46.69111" lon="5.46854">
        <ele>245</ele>
        <time>2015-04-21T17:30:11Z</time>
      </trkpt>
      <trkpt lat="46.6911" lon="5.46871">
        <ele>238</ele>
        <time>2015-04-21T17:30:15Z</time>
      </trkpt>
      <trkpt lat="46.69116" lon="5.46894">
        <ele>234</ele>
        <time>2015-04-21T17:30:20Z</time>
      </trkpt>
      <trkpt lat="46.69125" lon="5.46911">
        <ele>234</ele>
        <time>2015-04-21T17:30:25Z</time>
      </trkpt>
      <trkpt lat="46.69133" lon="5.46927">
        <ele>232</ele>
        <time>2015-04-21T17:30:30Z</time>
      </trkpt>
      <trkpt lat="46.69138" lon="5.46941">
        <ele>229</ele>
        <time>2015-04-21T17:30:34Z</time>
      </trkpt>
      <trkpt lat="46.69142" lon="5.46954">
        <ele>230</ele>
        <time>2015-04-21T17:30:38Z</time>
      </trkpt>
      <trkpt lat="46.69148" lon="5.46969">
        <ele>231</ele>
        <time>2015-04-21T17:30:42Z</time>
      </trkpt>
      <trkpt lat="46.69155" lon="5.46985">
        <ele>229</ele>
        <time>2015-04-21T17:30:47Z</time>
      </trkpt>
      <trkpt lat="46.69161" lon="5.46998">
        <ele>231</ele>
        <time>2015-04-21T17:30:51Z</time>
      </trkpt>
      <trkpt lat="46.69168" lon="5.47014">
        <ele>230</ele>
        <time>2015-04-21T17:30:56Z</time>
      </trkpt>
      <trkpt lat="46.69172" lon="5.47026">
        <ele>230</ele>
        <time>2015-04-21T17:31:00Z</time>
      </trkpt>
      <trkpt lat="46.69178" lon="5.47037">
        <ele>232</ele>
        <time>2015-04-21T17:31:05Z</time>
      </trkpt>
      <trkpt lat="46.69185" lon="5.47052">
        <ele>230</ele>
        <time>2015-04-21T17:31:09Z</time>
      </trkpt>
      <trkpt lat="46.69189" lon="5.47066">
        <ele>231</ele>
        <time>2015-04-21T17:31:13Z</time>
      </trkpt>
      <trkpt lat="46.69195" lon="5.47077">
        <ele>229</ele>
        <time>2015-04-21T17:31:17Z</time>
      </trkpt>
      <trkpt lat="46.69202" lon="5.47091">
        <ele>228</ele>
        <time>2015-04-21T17:31:22Z</time>
      </trkpt>
      <trkpt lat="46.69207" lon="5.47104">
        <ele>227</ele>
        <time>2015-04-21T17:31:26Z</time>
      </trkpt>
      <trkpt lat="46.69212" lon="5.47117">
        <ele>226</ele>
        <time>2015-04-21T17:31:30Z</time>
      </trkpt>
      <trkpt lat="46.69218" lon="5.4713">
        <ele>230</ele>
        <time>2015-04-21T17:31:34Z</time>
      </trkpt>
      <trkpt lat="46.69226" lon="5.47147">
        <ele>232</ele>
        <time>2015-04-21T17:31:39Z</time>
      </trkpt>
      <trkpt lat="46.69232" lon="5.47158">
        <ele>232</ele>
        <time>2015-04-21T17:31:43Z</time>
      </trkpt>
      <trkpt lat="46.69238" lon="5.47169">
        <ele>231</ele>
        <time>2015-04-21T17:31:47Z</time>
      </trkpt>
      <trkpt lat="46.69243" lon="5.47181">
        <ele>233</ele>
        <time>2015-04-21T17:31:51Z</time>
      </trkpt>
      <trkpt lat="46.69246" lon="5.47193">
        <ele>231</ele>
        <time>2015-04-21T17:31:55Z</time>
      </trkpt>
      <trkpt lat="46.69252" lon="5.47205">
        <ele>233</ele>
        <time>2015-04-21T17:31:59Z</time>
      </trkpt>
      <trkpt lat="46.69259" lon="5.47216">
        <ele>231</ele>
        <time>2015-04-21T17:32:03Z</time>
      </trkpt>
      <trkpt lat="46.69263" lon="5.4723">
        <ele>230</ele>
        <time>2015-04-21T17:32:07Z</time>
      </trkpt>
      <trkpt lat="46.6927" lon="5.47242">
        <ele>232</ele>
        <time>2015-04-21T17:32:11Z</time>
      </trkpt>
      <trkpt lat="46.6928" lon="5.47255">
        <ele>233</ele>
        <time>2015-04-21T17:32:16Z</time>
      </trkpt>
      <trkpt lat="46.69286" lon="5.47267">
        <ele>234</ele>
        <time>2015-04-21T17:32:20Z</time>
      </trkpt>
      <trkpt lat="46.69293" lon="5.47284">
        <ele>232</ele>
        <time>2015-04-21T17:32:25Z</time>
      </trkpt>
      <trkpt lat="46.693" lon="5.47301">
        <ele>229</ele>
        <time>2015-04-21T17:32:30Z</time>
      </trkpt>
      <trkpt lat="46.69304" lon="5.47315">
        <ele>232</ele>
        <time>2015-04-21T17:32:34Z</time>
      </trkpt>
      <trkpt lat="46.69305" lon="5.4733">
        <ele>233</ele>
        <time>2015-04-21T17:32:38Z</time>
      </trkpt>
      <trkpt lat="46.69305" lon="5.47351">
        <ele>234</ele>
        <time>2015-04-21T17:32:43Z</time>
      </trkpt>
      <trkpt lat="46.69299" lon="5.47369">
        <ele>233</ele>
        <time>2015-04-21T17:32:47Z</time>
      </trkpt>
      <trkpt lat="46.69292" lon="5.47391">
        <ele>231</ele>
        <time>2015-04-21T17:32:52Z</time>
      </trkpt>
      <trkpt lat="46.69291" lon="5.4741">
        <ele>232</ele>
        <time>2015-04-21T17:32:56Z</time>
      </trkpt>
      <trkpt lat="46.6929" lon="5.47429">
        <ele>232</ele>
        <time>2015-04-21T17:33:00Z</time>
      </trkpt>
      <trkpt lat="46.69289" lon="5.47456">
        <ele>235</ele>
        <time>2015-04-21T17:33:05Z</time>
      </trkpt>
      <trkpt lat="46.69291" lon="5.47482">
        <ele>236</ele>
        <time>2015-04-21T17:33:10Z</time>
      </trkpt>
      <trkpt lat="46.69289" lon="5.47503">
        <ele>235</ele>
        <time>2015-04-21T17:33:14Z</time>
      </trkpt>
      <trkpt lat="46.69287" lon="5.47528">
        <ele>232</ele>
        <time>2015-04-21T17:33:19Z</time>
      </trkpt>
      <trkpt lat="46.69293" lon="5.47551">
        <ele>233</ele>
        <time>2015-04-21T17:33:23Z</time>
      </trkpt>
      <trkpt lat="46.69296" lon="5.47572">
        <ele>234</ele>
        <time>2015-04-21T17:33:27Z</time>
      </trkpt>
      <trkpt lat="46.69301" lon="5.47602">
        <ele>235</ele>
        <time>2015-04-21T17:33:32Z</time>
      </trkpt>
      <trkpt lat="46.69301" lon="5.47628">
        <ele>235</ele>
        <time>2015-04-21T17:33:37Z</time>
      </trkpt>
      <trkpt lat="46.69301" lon="5.47647">
        <ele>235</ele>
        <time>2015-04-21T17:33:41Z</time>
      </trkpt>
      <trkpt lat="46.69302" lon="5.47674">
        <ele>234</ele>
        <time>2015-04-21T17:33:46Z</time>
      </trkpt>
      <trkpt lat="46.69304" lon="5.47698">
        <ele>234</ele>
        <time>2015-04-21T17:33:50Z</time>
      </trkpt>
      <trkpt lat="46.69305" lon="5.47721">
        <ele>235</ele>
        <time>2015-04-21T17:33:54Z</time>
      </trkpt>
      <trkpt lat="46.69305" lon="5.47733">
        <ele>235</ele>
        <time>2015-04-21T17:34:00Z</time>
      </trkpt>
      <trkpt lat="46.69302" lon="5.47744">
        <ele>234</ele>
        <time>2015-04-21T17:34:08Z</time>
      </trkpt>
      <trkpt lat="46.69303" lon="5.47756">
        <ele>235</ele>
        <time>2015-04-21T17:34:15Z</time>
      </trkpt>
      <trkpt lat="46.69303" lon="5.47768">
        <ele>235</ele>
        <time>2015-04-21T17:34:22Z</time>
      </trkpt>
      <trkpt lat="46.69303" lon="5.4778">
        <ele>235</ele>
        <time>2015-04-21T17:34:29Z</time>
      </trkpt>
      <trkpt lat="46.69303" lon="5.47792">
        <ele>235</ele>
        <time>2015-04-21T17:34:36Z</time>
      </trkpt>
      <trkpt lat="46.69305" lon="5.47803">
        <ele>234</ele>
        <time>2015-04-21T17:34:42Z</time>
      </trkpt>
      <trkpt lat="46.69307" lon="5.47814">
        <ele>231</ele>
        <time>2015-04-21T17:34:48Z</time>
      </trkpt>
      <trkpt lat="46.69309" lon="5.47826">
        <ele>232</ele>
        <time>2015-04-21T17:34:56Z</time>
      </trkpt>
      <trkpt lat="46.69309" lon="5.47831">
        <ele>229</ele>
        <time>2015-04-21T17:34:58Z</time>
      </trkpt>
      <trkpt lat="46.69309" lon="5.47831">
        <ele>229</ele>
        <time>2015-04-21T17:34:59Z</time>
      </trkpt>
    </trkseg>
  </trk>
</gpx>